<?xml version="1.0" encoding="UTF-8" standalone="no" ?>
<gpx xmlns="http://www.topografix.com/GPX/1/1" xmlns:xsi="http://www.w3.org/2001/XMLSchema-instance" xsi:schemaLocation="http://www.topografix.com/GPX/1/1 http://www.topografix.com/GPX/1/1/gpx.xsd" version="1.1" creator="VisuGPX - https://www.visugpx.com">
  <metadata>
    <name>Trou de la Mouche</name>
    <desc><![CDATA[Enclenché GPS un peu tard. Première partie de la descente sur neige dure et difficile, avec peu de visibilité.]]></desc>
  </metadata>
  <trk>
    <name><![CDATA[Trou de la Mouche]]></name>
    <cmt><![CDATA[10:28:27]]></cmt>
    <desc><![CDATA[comment ...]]></desc>
    <trkseg>
      <trkpt lat="45.92374" lon="6.48342">
        <ele>1434</ele>
        <time>2020-01-26T09:27:36Z</time>
      </trkpt>
      <trkpt lat="45.92374" lon="6.48342">
        <ele>1434</ele>
        <time>2020-01-26T09:27:37Z</time>
      </trkpt>
      <trkpt lat="45.92369" lon="6.48353">
        <ele>1434</ele>
        <time>2020-01-26T09:32:09Z</time>
      </trkpt>
      <trkpt lat="45.92364" lon="6.48361">
        <ele>1438</ele>
        <time>2020-01-26T09:33:25Z</time>
      </trkpt>
      <trkpt lat="45.92354" lon="6.48369">
        <ele>1438</ele>
        <time>2020-01-26T09:35:17Z</time>
      </trkpt>
      <trkpt lat="45.92347" lon="6.48374">
        <ele>1438</ele>
        <time>2020-01-26T09:35:24Z</time>
      </trkpt>
      <trkpt lat="45.92339" lon="6.48378">
        <ele>1438</ele>
        <time>2020-01-26T09:35:30Z</time>
      </trkpt>
      <trkpt lat="45.92332" lon="6.48381">
        <ele>1438</ele>
        <time>2020-01-26T09:35:35Z</time>
      </trkpt>
      <trkpt lat="45.92324" lon="6.48386">
        <ele>1437</ele>
        <time>2020-01-26T09:35:45Z</time>
      </trkpt>
      <trkpt lat="45.92292" lon="6.48404">
        <ele>1438</ele>
        <time>2020-01-26T09:36:17Z</time>
      </trkpt>
      <trkpt lat="45.92275" lon="6.48417">
        <ele>1439</ele>
        <time>2020-01-26T09:36:33Z</time>
      </trkpt>
      <trkpt lat="45.92256" lon="6.48425">
        <ele>1440</ele>
        <time>2020-01-26T09:36:53Z</time>
      </trkpt>
      <trkpt lat="45.92248" lon="6.48427">
        <ele>1442</ele>
        <time>2020-01-26T09:37:05Z</time>
      </trkpt>
      <trkpt lat="45.92241" lon="6.48433">
        <ele>1442</ele>
        <time>2020-01-26T09:40:24Z</time>
      </trkpt>
      <trkpt lat="45.92219" lon="6.48459">
        <ele>1439</ele>
        <time>2020-01-26T09:40:52Z</time>
      </trkpt>
      <trkpt lat="45.92215" lon="6.4847">
        <ele>1439</ele>
        <time>2020-01-26T09:41:04Z</time>
      </trkpt>
      <trkpt lat="45.92201" lon="6.48486">
        <ele>1438</ele>
        <time>2020-01-26T09:41:14Z</time>
      </trkpt>
      <trkpt lat="45.92194" lon="6.48496">
        <ele>1439</ele>
        <time>2020-01-26T09:41:30Z</time>
      </trkpt>
      <trkpt lat="45.92187" lon="6.48509">
        <ele>1439</ele>
        <time>2020-01-26T09:41:48Z</time>
      </trkpt>
      <trkpt lat="45.92184" lon="6.4852">
        <ele>1441</ele>
        <time>2020-01-26T09:42:03Z</time>
      </trkpt>
      <trkpt lat="45.9218" lon="6.48535">
        <ele>1442</ele>
        <time>2020-01-26T09:42:14Z</time>
      </trkpt>
      <trkpt lat="45.92166" lon="6.48555">
        <ele>1445</ele>
        <time>2020-01-26T09:42:32Z</time>
      </trkpt>
      <trkpt lat="45.92162" lon="6.48564">
        <ele>1446</ele>
        <time>2020-01-26T09:42:44Z</time>
      </trkpt>
      <trkpt lat="45.92154" lon="6.48579">
        <ele>1447</ele>
        <time>2020-01-26T09:42:59Z</time>
      </trkpt>
      <trkpt lat="45.92146" lon="6.48586">
        <ele>1447</ele>
        <time>2020-01-26T09:43:14Z</time>
      </trkpt>
      <trkpt lat="45.92142" lon="6.48598">
        <ele>1449</ele>
        <time>2020-01-26T09:43:28Z</time>
      </trkpt>
      <trkpt lat="45.92139" lon="6.48613">
        <ele>1451</ele>
        <time>2020-01-26T09:43:45Z</time>
      </trkpt>
      <trkpt lat="45.92135" lon="6.48626">
        <ele>1452</ele>
        <time>2020-01-26T09:43:59Z</time>
      </trkpt>
      <trkpt lat="45.92131" lon="6.48635">
        <ele>1452</ele>
        <time>2020-01-26T09:44:09Z</time>
      </trkpt>
      <trkpt lat="45.92126" lon="6.48644">
        <ele>1452</ele>
        <time>2020-01-26T09:44:16Z</time>
      </trkpt>
      <trkpt lat="45.92128" lon="6.48659">
        <ele>1453</ele>
        <time>2020-01-26T09:44:35Z</time>
      </trkpt>
      <trkpt lat="45.9213" lon="6.48672">
        <ele>1456</ele>
        <time>2020-01-26T09:44:45Z</time>
      </trkpt>
      <trkpt lat="45.92137" lon="6.48691">
        <ele>1458</ele>
        <time>2020-01-26T09:45:04Z</time>
      </trkpt>
      <trkpt lat="45.92144" lon="6.48696">
        <ele>1458</ele>
        <time>2020-01-26T09:45:13Z</time>
      </trkpt>
      <trkpt lat="45.92162" lon="6.48733">
        <ele>1458</ele>
        <time>2020-01-26T09:45:36Z</time>
      </trkpt>
      <trkpt lat="45.92166" lon="6.48744">
        <ele>1458</ele>
        <time>2020-01-26T09:45:41Z</time>
      </trkpt>
      <trkpt lat="45.92176" lon="6.48768">
        <ele>1457</ele>
        <time>2020-01-26T09:45:51Z</time>
      </trkpt>
      <trkpt lat="45.92181" lon="6.4878">
        <ele>1457</ele>
        <time>2020-01-26T09:45:58Z</time>
      </trkpt>
      <trkpt lat="45.92181" lon="6.48839">
        <ele>1454</ele>
        <time>2020-01-26T09:46:24Z</time>
      </trkpt>
      <trkpt lat="45.92165" lon="6.48864">
        <ele>1450</ele>
        <time>2020-01-26T09:46:35Z</time>
      </trkpt>
      <trkpt lat="45.9216" lon="6.48877">
        <ele>1448</ele>
        <time>2020-01-26T09:46:43Z</time>
      </trkpt>
      <trkpt lat="45.9216" lon="6.48893">
        <ele>1446</ele>
        <time>2020-01-26T09:46:58Z</time>
      </trkpt>
      <trkpt lat="45.92159" lon="6.48936">
        <ele>1442</ele>
        <time>2020-01-26T09:47:36Z</time>
      </trkpt>
      <trkpt lat="45.92158" lon="6.48946">
        <ele>1445</ele>
        <time>2020-01-26T09:47:52Z</time>
      </trkpt>
      <trkpt lat="45.92159" lon="6.48962">
        <ele>1446</ele>
        <time>2020-01-26T09:48:01Z</time>
      </trkpt>
      <trkpt lat="45.92164" lon="6.48977">
        <ele>1448</ele>
        <time>2020-01-26T09:48:17Z</time>
      </trkpt>
      <trkpt lat="45.92168" lon="6.48992">
        <ele>1449</ele>
        <time>2020-01-26T09:48:33Z</time>
      </trkpt>
      <trkpt lat="45.92168" lon="6.49005">
        <ele>1450</ele>
        <time>2020-01-26T09:48:45Z</time>
      </trkpt>
      <trkpt lat="45.92168" lon="6.49016">
        <ele>1453</ele>
        <time>2020-01-26T09:48:58Z</time>
      </trkpt>
      <trkpt lat="45.9217" lon="6.4903">
        <ele>1454</ele>
        <time>2020-01-26T09:49:15Z</time>
      </trkpt>
      <trkpt lat="45.92177" lon="6.49045">
        <ele>1454</ele>
        <time>2020-01-26T09:49:28Z</time>
      </trkpt>
      <trkpt lat="45.92182" lon="6.4906">
        <ele>1454</ele>
        <time>2020-01-26T09:49:43Z</time>
      </trkpt>
      <trkpt lat="45.92179" lon="6.49076">
        <ele>1454</ele>
        <time>2020-01-26T09:50:44Z</time>
      </trkpt>
      <trkpt lat="45.92188" lon="6.49108">
        <ele>1456</ele>
        <time>2020-01-26T09:51:30Z</time>
      </trkpt>
      <trkpt lat="45.92194" lon="6.49121">
        <ele>1460</ele>
        <time>2020-01-26T09:51:56Z</time>
      </trkpt>
      <trkpt lat="45.92202" lon="6.49145">
        <ele>1466</ele>
        <time>2020-01-26T09:52:28Z</time>
      </trkpt>
      <trkpt lat="45.92204" lon="6.49155">
        <ele>1471</ele>
        <time>2020-01-26T09:52:45Z</time>
      </trkpt>
      <trkpt lat="45.92206" lon="6.49168">
        <ele>1472</ele>
        <time>2020-01-26T09:52:53Z</time>
      </trkpt>
      <trkpt lat="45.92207" lon="6.49181">
        <ele>1474</ele>
        <time>2020-01-26T09:53:08Z</time>
      </trkpt>
      <trkpt lat="45.92211" lon="6.49198">
        <ele>1475</ele>
        <time>2020-01-26T09:53:27Z</time>
      </trkpt>
      <trkpt lat="45.92207" lon="6.49212">
        <ele>1479</ele>
        <time>2020-01-26T09:53:45Z</time>
      </trkpt>
      <trkpt lat="45.922" lon="6.49224">
        <ele>1484</ele>
        <time>2020-01-26T09:54:06Z</time>
      </trkpt>
      <trkpt lat="45.92197" lon="6.49237">
        <ele>1487</ele>
        <time>2020-01-26T09:54:36Z</time>
      </trkpt>
      <trkpt lat="45.92193" lon="6.49246">
        <ele>1491</ele>
        <time>2020-01-26T09:54:59Z</time>
      </trkpt>
      <trkpt lat="45.9219" lon="6.49258">
        <ele>1492</ele>
        <time>2020-01-26T09:55:16Z</time>
      </trkpt>
      <trkpt lat="45.92192" lon="6.49274">
        <ele>1496</ele>
        <time>2020-01-26T09:56:35Z</time>
      </trkpt>
      <trkpt lat="45.92193" lon="6.49302">
        <ele>1498</ele>
        <time>2020-01-26T09:57:07Z</time>
      </trkpt>
      <trkpt lat="45.92192" lon="6.49313">
        <ele>1500</ele>
        <time>2020-01-26T09:57:25Z</time>
      </trkpt>
      <trkpt lat="45.92186" lon="6.49332">
        <ele>1506</ele>
        <time>2020-01-26T09:57:52Z</time>
      </trkpt>
      <trkpt lat="45.9219" lon="6.49344">
        <ele>1512</ele>
        <time>2020-01-26T09:58:23Z</time>
      </trkpt>
      <trkpt lat="45.92196" lon="6.49353">
        <ele>1516</ele>
        <time>2020-01-26T09:58:39Z</time>
      </trkpt>
      <trkpt lat="45.92198" lon="6.49368">
        <ele>1518</ele>
        <time>2020-01-26T09:58:52Z</time>
      </trkpt>
      <trkpt lat="45.92205" lon="6.4938">
        <ele>1523</ele>
        <time>2020-01-26T09:59:18Z</time>
      </trkpt>
      <trkpt lat="45.92221" lon="6.49404">
        <ele>1526</ele>
        <time>2020-01-26T09:59:56Z</time>
      </trkpt>
      <trkpt lat="45.92229" lon="6.49416">
        <ele>1527</ele>
        <time>2020-01-26T10:00:20Z</time>
      </trkpt>
      <trkpt lat="45.92237" lon="6.49429">
        <ele>1527</ele>
        <time>2020-01-26T10:00:32Z</time>
      </trkpt>
      <trkpt lat="45.92241" lon="6.49444">
        <ele>1529</ele>
        <time>2020-01-26T10:00:58Z</time>
      </trkpt>
      <trkpt lat="45.92251" lon="6.49465">
        <ele>1538</ele>
        <time>2020-01-26T10:01:44Z</time>
      </trkpt>
      <trkpt lat="45.92256" lon="6.49475">
        <ele>1542</ele>
        <time>2020-01-26T10:01:56Z</time>
      </trkpt>
      <trkpt lat="45.92261" lon="6.49493">
        <ele>1546</ele>
        <time>2020-01-26T10:02:26Z</time>
      </trkpt>
      <trkpt lat="45.92263" lon="6.49504">
        <ele>1547</ele>
        <time>2020-01-26T10:02:33Z</time>
      </trkpt>
      <trkpt lat="45.92254" lon="6.49507">
        <ele>1549</ele>
        <time>2020-01-26T10:02:56Z</time>
      </trkpt>
      <trkpt lat="45.92248" lon="6.49513">
        <ele>1551</ele>
        <time>2020-01-26T10:03:33Z</time>
      </trkpt>
      <trkpt lat="45.92243" lon="6.49522">
        <ele>1553</ele>
        <time>2020-01-26T10:03:47Z</time>
      </trkpt>
      <trkpt lat="45.92246" lon="6.49537">
        <ele>1556</ele>
        <time>2020-01-26T10:04:16Z</time>
      </trkpt>
      <trkpt lat="45.92253" lon="6.49545">
        <ele>1557</ele>
        <time>2020-01-26T10:04:54Z</time>
      </trkpt>
      <trkpt lat="45.92261" lon="6.49549">
        <ele>1557</ele>
        <time>2020-01-26T10:05:16Z</time>
      </trkpt>
      <trkpt lat="45.92273" lon="6.49558">
        <ele>1560</ele>
        <time>2020-01-26T10:05:35Z</time>
      </trkpt>
      <trkpt lat="45.92283" lon="6.49568">
        <ele>1561</ele>
        <time>2020-01-26T10:05:53Z</time>
      </trkpt>
      <trkpt lat="45.92289" lon="6.49577">
        <ele>1565</ele>
        <time>2020-01-26T10:06:29Z</time>
      </trkpt>
      <trkpt lat="45.92281" lon="6.49586">
        <ele>1572</ele>
        <time>2020-01-26T10:07:21Z</time>
      </trkpt>
      <trkpt lat="45.92269" lon="6.49596">
        <ele>1582</ele>
        <time>2020-01-26T10:07:49Z</time>
      </trkpt>
      <trkpt lat="45.92263" lon="6.49601">
        <ele>1585</ele>
        <time>2020-01-26T10:08:01Z</time>
      </trkpt>
      <trkpt lat="45.92254" lon="6.49604">
        <ele>1588</ele>
        <time>2020-01-26T10:08:15Z</time>
      </trkpt>
      <trkpt lat="45.92243" lon="6.49606">
        <ele>1598</ele>
        <time>2020-01-26T10:08:41Z</time>
      </trkpt>
      <trkpt lat="45.92235" lon="6.49607">
        <ele>1600</ele>
        <time>2020-01-26T10:09:00Z</time>
      </trkpt>
      <trkpt lat="45.92227" lon="6.49604">
        <ele>1604</ele>
        <time>2020-01-26T10:09:10Z</time>
      </trkpt>
      <trkpt lat="45.92219" lon="6.49604">
        <ele>1605</ele>
        <time>2020-01-26T10:09:19Z</time>
      </trkpt>
      <trkpt lat="45.92204" lon="6.49602">
        <ele>1607</ele>
        <time>2020-01-26T10:09:33Z</time>
      </trkpt>
      <trkpt lat="45.92214" lon="6.49619">
        <ele>1606</ele>
        <time>2020-01-26T10:11:11Z</time>
      </trkpt>
      <trkpt lat="45.92221" lon="6.49633">
        <ele>1607</ele>
        <time>2020-01-26T10:11:23Z</time>
      </trkpt>
      <trkpt lat="45.92216" lon="6.49639">
        <ele>1609</ele>
        <time>2020-01-26T10:11:51Z</time>
      </trkpt>
      <trkpt lat="45.92208" lon="6.49641">
        <ele>1612</ele>
        <time>2020-01-26T10:12:18Z</time>
      </trkpt>
      <trkpt lat="45.92201" lon="6.49641">
        <ele>1622</ele>
        <time>2020-01-26T10:12:43Z</time>
      </trkpt>
      <trkpt lat="45.92193" lon="6.49636">
        <ele>1628</ele>
        <time>2020-01-26T10:13:07Z</time>
      </trkpt>
      <trkpt lat="45.92186" lon="6.49637">
        <ele>1631</ele>
        <time>2020-01-26T10:13:36Z</time>
      </trkpt>
      <trkpt lat="45.92179" lon="6.49642">
        <ele>1630</ele>
        <time>2020-01-26T10:14:11Z</time>
      </trkpt>
      <trkpt lat="45.92178" lon="6.49653">
        <ele>1631</ele>
        <time>2020-01-26T10:14:38Z</time>
      </trkpt>
      <trkpt lat="45.92171" lon="6.4967">
        <ele>1632</ele>
        <time>2020-01-26T10:14:56Z</time>
      </trkpt>
      <trkpt lat="45.92156" lon="6.49679">
        <ele>1640</ele>
        <time>2020-01-26T10:15:34Z</time>
      </trkpt>
      <trkpt lat="45.92152" lon="6.49685">
        <ele>1643</ele>
        <time>2020-01-26T10:16:03Z</time>
      </trkpt>
      <trkpt lat="45.92142" lon="6.49699">
        <ele>1649</ele>
        <time>2020-01-26T10:16:23Z</time>
      </trkpt>
      <trkpt lat="45.92139" lon="6.49706">
        <ele>1655</ele>
        <time>2020-01-26T10:16:51Z</time>
      </trkpt>
      <trkpt lat="45.92141" lon="6.49718">
        <ele>1659</ele>
        <time>2020-01-26T10:17:29Z</time>
      </trkpt>
      <trkpt lat="45.92144" lon="6.49732">
        <ele>1663</ele>
        <time>2020-01-26T10:17:53Z</time>
      </trkpt>
      <trkpt lat="45.92141" lon="6.49742">
        <ele>1669</ele>
        <time>2020-01-26T10:18:33Z</time>
      </trkpt>
      <trkpt lat="45.92125" lon="6.49753">
        <ele>1672</ele>
        <time>2020-01-26T10:19:00Z</time>
      </trkpt>
      <trkpt lat="45.9212" lon="6.49764">
        <ele>1676</ele>
        <time>2020-01-26T10:19:35Z</time>
      </trkpt>
      <trkpt lat="45.92119" lon="6.49783">
        <ele>1683</ele>
        <time>2020-01-26T10:20:10Z</time>
      </trkpt>
      <trkpt lat="45.92121" lon="6.49794">
        <ele>1685</ele>
        <time>2020-01-26T10:20:21Z</time>
      </trkpt>
      <trkpt lat="45.92114" lon="6.49801">
        <ele>1688</ele>
        <time>2020-01-26T10:20:44Z</time>
      </trkpt>
      <trkpt lat="45.92106" lon="6.49806">
        <ele>1689</ele>
        <time>2020-01-26T10:21:11Z</time>
      </trkpt>
      <trkpt lat="45.92098" lon="6.49809">
        <ele>1693</ele>
        <time>2020-01-26T10:21:40Z</time>
      </trkpt>
      <trkpt lat="45.92084" lon="6.49812">
        <ele>1696</ele>
        <time>2020-01-26T10:22:18Z</time>
      </trkpt>
      <trkpt lat="45.92078" lon="6.49811">
        <ele>1699</ele>
        <time>2020-01-26T10:22:34Z</time>
      </trkpt>
      <trkpt lat="45.9207" lon="6.49812">
        <ele>1702</ele>
        <time>2020-01-26T10:22:57Z</time>
      </trkpt>
      <trkpt lat="45.9206" lon="6.49808">
        <ele>1705</ele>
        <time>2020-01-26T10:23:10Z</time>
      </trkpt>
      <trkpt lat="45.92053" lon="6.49811">
        <ele>1708</ele>
        <time>2020-01-26T10:23:34Z</time>
      </trkpt>
      <trkpt lat="45.92047" lon="6.49816">
        <ele>1714</ele>
        <time>2020-01-26T10:25:42Z</time>
      </trkpt>
      <trkpt lat="45.92046" lon="6.49825">
        <ele>1715</ele>
        <time>2020-01-26T10:26:42Z</time>
      </trkpt>
      <trkpt lat="45.92043" lon="6.49839">
        <ele>1727</ele>
        <time>2020-01-26T10:27:24Z</time>
      </trkpt>
      <trkpt lat="45.92036" lon="6.49841">
        <ele>1728</ele>
        <time>2020-01-26T10:27:37Z</time>
      </trkpt>
      <trkpt lat="45.92027" lon="6.49841">
        <ele>1731</ele>
        <time>2020-01-26T10:27:53Z</time>
      </trkpt>
      <trkpt lat="45.92018" lon="6.49838">
        <ele>1735</ele>
        <time>2020-01-26T10:28:24Z</time>
      </trkpt>
      <trkpt lat="45.92011" lon="6.49835">
        <ele>1736</ele>
        <time>2020-01-26T10:28:51Z</time>
      </trkpt>
      <trkpt lat="45.92006" lon="6.4983">
        <ele>1742</ele>
        <time>2020-01-26T10:29:21Z</time>
      </trkpt>
      <trkpt lat="45.91997" lon="6.49831">
        <ele>1743</ele>
        <time>2020-01-26T10:29:29Z</time>
      </trkpt>
      <trkpt lat="45.91991" lon="6.49826">
        <ele>1746</ele>
        <time>2020-01-26T10:29:42Z</time>
      </trkpt>
      <trkpt lat="45.91981" lon="6.4982">
        <ele>1748</ele>
        <time>2020-01-26T10:29:50Z</time>
      </trkpt>
      <trkpt lat="45.91975" lon="6.49834">
        <ele>1751</ele>
        <time>2020-01-26T10:30:58Z</time>
      </trkpt>
      <trkpt lat="45.91977" lon="6.49852">
        <ele>1752</ele>
        <time>2020-01-26T10:31:03Z</time>
      </trkpt>
      <trkpt lat="45.91977" lon="6.49866">
        <ele>1754</ele>
        <time>2020-01-26T10:31:44Z</time>
      </trkpt>
      <trkpt lat="45.9197" lon="6.49868">
        <ele>1754</ele>
        <time>2020-01-26T10:32:02Z</time>
      </trkpt>
      <trkpt lat="45.91962" lon="6.49867">
        <ele>1757</ele>
        <time>2020-01-26T10:32:29Z</time>
      </trkpt>
      <trkpt lat="45.91955" lon="6.49864">
        <ele>1758</ele>
        <time>2020-01-26T10:32:41Z</time>
      </trkpt>
      <trkpt lat="45.9195" lon="6.49857">
        <ele>1765</ele>
        <time>2020-01-26T10:32:57Z</time>
      </trkpt>
      <trkpt lat="45.91942" lon="6.49852">
        <ele>1767</ele>
        <time>2020-01-26T10:33:22Z</time>
      </trkpt>
      <trkpt lat="45.91926" lon="6.49843">
        <ele>1772</ele>
        <time>2020-01-26T10:33:58Z</time>
      </trkpt>
      <trkpt lat="45.91917" lon="6.49837">
        <ele>1777</ele>
        <time>2020-01-26T10:34:14Z</time>
      </trkpt>
      <trkpt lat="45.91905" lon="6.49837">
        <ele>1781</ele>
        <time>2020-01-26T10:34:23Z</time>
      </trkpt>
      <trkpt lat="45.91907" lon="6.49854">
        <ele>1783</ele>
        <time>2020-01-26T10:35:07Z</time>
      </trkpt>
      <trkpt lat="45.91919" lon="6.49865">
        <ele>1784</ele>
        <time>2020-01-26T10:35:21Z</time>
      </trkpt>
      <trkpt lat="45.91926" lon="6.49884">
        <ele>1789</ele>
        <time>2020-01-26T10:35:44Z</time>
      </trkpt>
      <trkpt lat="45.91931" lon="6.49902">
        <ele>1792</ele>
        <time>2020-01-26T10:36:25Z</time>
      </trkpt>
      <trkpt lat="45.91927" lon="6.49907">
        <ele>1800</ele>
        <time>2020-01-26T10:37:16Z</time>
      </trkpt>
      <trkpt lat="45.91925" lon="6.49922">
        <ele>1803</ele>
        <time>2020-01-26T10:38:35Z</time>
      </trkpt>
      <trkpt lat="45.91922" lon="6.49943">
        <ele>1804</ele>
        <time>2020-01-26T10:38:39Z</time>
      </trkpt>
      <trkpt lat="45.91916" lon="6.49957">
        <ele>1805</ele>
        <time>2020-01-26T10:39:04Z</time>
      </trkpt>
      <trkpt lat="45.91907" lon="6.49957">
        <ele>1812</ele>
        <time>2020-01-26T10:39:36Z</time>
      </trkpt>
      <trkpt lat="45.919" lon="6.49948">
        <ele>1815</ele>
        <time>2020-01-26T10:40:07Z</time>
      </trkpt>
      <trkpt lat="45.91885" lon="6.49934">
        <ele>1827</ele>
        <time>2020-01-26T10:40:49Z</time>
      </trkpt>
      <trkpt lat="45.91877" lon="6.49928">
        <ele>1831</ele>
        <time>2020-01-26T10:41:03Z</time>
      </trkpt>
      <trkpt lat="45.91871" lon="6.49922">
        <ele>1834</ele>
        <time>2020-01-26T10:41:27Z</time>
      </trkpt>
      <trkpt lat="45.91859" lon="6.49907">
        <ele>1838</ele>
        <time>2020-01-26T10:42:01Z</time>
      </trkpt>
      <trkpt lat="45.91851" lon="6.499">
        <ele>1840</ele>
        <time>2020-01-26T10:42:22Z</time>
      </trkpt>
      <trkpt lat="45.91843" lon="6.49895">
        <ele>1843</ele>
        <time>2020-01-26T10:42:28Z</time>
      </trkpt>
      <trkpt lat="45.91831" lon="6.4989">
        <ele>1846</ele>
        <time>2020-01-26T10:42:55Z</time>
      </trkpt>
      <trkpt lat="45.9182" lon="6.49894">
        <ele>1849</ele>
        <time>2020-01-26T10:43:12Z</time>
      </trkpt>
      <trkpt lat="45.91815" lon="6.49901">
        <ele>1849</ele>
        <time>2020-01-26T10:43:30Z</time>
      </trkpt>
      <trkpt lat="45.91805" lon="6.49904">
        <ele>1851</ele>
        <time>2020-01-26T10:43:56Z</time>
      </trkpt>
      <trkpt lat="45.91796" lon="6.49905">
        <ele>1853</ele>
        <time>2020-01-26T10:44:14Z</time>
      </trkpt>
      <trkpt lat="45.9179" lon="6.49911">
        <ele>1865</ele>
        <time>2020-01-26T10:57:00Z</time>
      </trkpt>
      <trkpt lat="45.91782" lon="6.49914">
        <ele>1866</ele>
        <time>2020-01-26T10:57:12Z</time>
      </trkpt>
      <trkpt lat="45.9177" lon="6.49927">
        <ele>1867</ele>
        <time>2020-01-26T10:57:44Z</time>
      </trkpt>
      <trkpt lat="45.91764" lon="6.49928">
        <ele>1868</ele>
        <time>2020-01-26T10:58:04Z</time>
      </trkpt>
      <trkpt lat="45.91756" lon="6.49926">
        <ele>1872</ele>
        <time>2020-01-26T10:58:20Z</time>
      </trkpt>
      <trkpt lat="45.9175" lon="6.49923">
        <ele>1874</ele>
        <time>2020-01-26T10:58:35Z</time>
      </trkpt>
      <trkpt lat="45.91741" lon="6.49926">
        <ele>1878</ele>
        <time>2020-01-26T10:58:59Z</time>
      </trkpt>
      <trkpt lat="45.91727" lon="6.49923">
        <ele>1887</ele>
        <time>2020-01-26T10:59:39Z</time>
      </trkpt>
      <trkpt lat="45.9172" lon="6.49924">
        <ele>1890</ele>
        <time>2020-01-26T10:59:52Z</time>
      </trkpt>
      <trkpt lat="45.91715" lon="6.49929">
        <ele>1890</ele>
        <time>2020-01-26T11:00:02Z</time>
      </trkpt>
      <trkpt lat="45.91709" lon="6.49923">
        <ele>1891</ele>
        <time>2020-01-26T11:00:20Z</time>
      </trkpt>
      <trkpt lat="45.91695" lon="6.49911">
        <ele>1895</ele>
        <time>2020-01-26T11:00:58Z</time>
      </trkpt>
      <trkpt lat="45.91688" lon="6.49905">
        <ele>1897</ele>
        <time>2020-01-26T11:01:24Z</time>
      </trkpt>
      <trkpt lat="45.91681" lon="6.49909">
        <ele>1899</ele>
        <time>2020-01-26T11:01:45Z</time>
      </trkpt>
      <trkpt lat="45.91673" lon="6.4991">
        <ele>1904</ele>
        <time>2020-01-26T11:01:56Z</time>
      </trkpt>
      <trkpt lat="45.91673" lon="6.49922">
        <ele>1906</ele>
        <time>2020-01-26T11:02:10Z</time>
      </trkpt>
      <trkpt lat="45.91671" lon="6.49931">
        <ele>1911</ele>
        <time>2020-01-26T11:02:49Z</time>
      </trkpt>
      <trkpt lat="45.91656" lon="6.49941">
        <ele>1913</ele>
        <time>2020-01-26T11:03:30Z</time>
      </trkpt>
      <trkpt lat="45.91641" lon="6.4995">
        <ele>1915</ele>
        <time>2020-01-26T11:04:04Z</time>
      </trkpt>
      <trkpt lat="45.91638" lon="6.49959">
        <ele>1916</ele>
        <time>2020-01-26T11:04:24Z</time>
      </trkpt>
      <trkpt lat="45.91645" lon="6.49964">
        <ele>1918</ele>
        <time>2020-01-26T11:04:41Z</time>
      </trkpt>
      <trkpt lat="45.91649" lon="6.49971">
        <ele>1919</ele>
        <time>2020-01-26T11:04:49Z</time>
      </trkpt>
      <trkpt lat="45.91654" lon="6.49979">
        <ele>1923</ele>
        <time>2020-01-26T11:05:08Z</time>
      </trkpt>
      <trkpt lat="45.91657" lon="6.49987">
        <ele>1924</ele>
        <time>2020-01-26T11:05:22Z</time>
      </trkpt>
      <trkpt lat="45.91657" lon="6.49999">
        <ele>1929</ele>
        <time>2020-01-26T11:05:44Z</time>
      </trkpt>
      <trkpt lat="45.91657" lon="6.5001">
        <ele>1933</ele>
        <time>2020-01-26T11:05:56Z</time>
      </trkpt>
      <trkpt lat="45.91661" lon="6.50019">
        <ele>1935</ele>
        <time>2020-01-26T11:06:03Z</time>
      </trkpt>
      <trkpt lat="45.91647" lon="6.50014">
        <ele>1936</ele>
        <time>2020-01-26T11:07:08Z</time>
      </trkpt>
      <trkpt lat="45.91639" lon="6.50009">
        <ele>1937</ele>
        <time>2020-01-26T11:07:22Z</time>
      </trkpt>
      <trkpt lat="45.91629" lon="6.50001">
        <ele>1940</ele>
        <time>2020-01-26T11:07:41Z</time>
      </trkpt>
      <trkpt lat="45.91623" lon="6.49999">
        <ele>1945</ele>
        <time>2020-01-26T11:07:54Z</time>
      </trkpt>
      <trkpt lat="45.91616" lon="6.50001">
        <ele>1947</ele>
        <time>2020-01-26T11:08:13Z</time>
      </trkpt>
      <trkpt lat="45.9161" lon="6.49998">
        <ele>1950</ele>
        <time>2020-01-26T11:08:26Z</time>
      </trkpt>
      <trkpt lat="45.91604" lon="6.50001">
        <ele>1952</ele>
        <time>2020-01-26T11:08:42Z</time>
      </trkpt>
      <trkpt lat="45.91601" lon="6.49993">
        <ele>1953</ele>
        <time>2020-01-26T11:09:01Z</time>
      </trkpt>
      <trkpt lat="45.91601" lon="6.49981">
        <ele>1956</ele>
        <time>2020-01-26T11:09:26Z</time>
      </trkpt>
      <trkpt lat="45.91597" lon="6.49973">
        <ele>1958</ele>
        <time>2020-01-26T11:09:37Z</time>
      </trkpt>
      <trkpt lat="45.91591" lon="6.49966">
        <ele>1960</ele>
        <time>2020-01-26T11:09:56Z</time>
      </trkpt>
      <trkpt lat="45.91583" lon="6.49961">
        <ele>1964</ele>
        <time>2020-01-26T11:10:11Z</time>
      </trkpt>
      <trkpt lat="45.91578" lon="6.49962">
        <ele>1965</ele>
        <time>2020-01-26T11:10:21Z</time>
      </trkpt>
      <trkpt lat="45.91576" lon="6.49975">
        <ele>1967</ele>
        <time>2020-01-26T11:11:19Z</time>
      </trkpt>
      <trkpt lat="45.91578" lon="6.49987">
        <ele>1967</ele>
        <time>2020-01-26T11:11:33Z</time>
      </trkpt>
      <trkpt lat="45.91574" lon="6.49996">
        <ele>1967</ele>
        <time>2020-01-26T11:11:47Z</time>
      </trkpt>
      <trkpt lat="45.91569" lon="6.50003">
        <ele>1971</ele>
        <time>2020-01-26T11:12:06Z</time>
      </trkpt>
      <trkpt lat="45.91566" lon="6.50014">
        <ele>1974</ele>
        <time>2020-01-26T11:12:22Z</time>
      </trkpt>
      <trkpt lat="45.91559" lon="6.50019">
        <ele>1977</ele>
        <time>2020-01-26T11:12:47Z</time>
      </trkpt>
      <trkpt lat="45.91554" lon="6.50027">
        <ele>1983</ele>
        <time>2020-01-26T11:13:01Z</time>
      </trkpt>
      <trkpt lat="45.91547" lon="6.5003">
        <ele>1985</ele>
        <time>2020-01-26T11:13:33Z</time>
      </trkpt>
      <trkpt lat="45.91542" lon="6.50035">
        <ele>1987</ele>
        <time>2020-01-26T11:13:39Z</time>
      </trkpt>
      <trkpt lat="45.91536" lon="6.5004">
        <ele>1988</ele>
        <time>2020-01-26T11:13:52Z</time>
      </trkpt>
      <trkpt lat="45.91529" lon="6.50046">
        <ele>1988</ele>
        <time>2020-01-26T11:14:17Z</time>
      </trkpt>
      <trkpt lat="45.91524" lon="6.50055">
        <ele>1988</ele>
        <time>2020-01-26T11:14:33Z</time>
      </trkpt>
      <trkpt lat="45.9152" lon="6.50059">
        <ele>1987</ele>
        <time>2020-01-26T11:14:40Z</time>
      </trkpt>
      <trkpt lat="45.91513" lon="6.50065">
        <ele>1986</ele>
        <time>2020-01-26T11:14:55Z</time>
      </trkpt>
      <trkpt lat="45.91511" lon="6.50076">
        <ele>1986</ele>
        <time>2020-01-26T11:15:07Z</time>
      </trkpt>
      <trkpt lat="45.91514" lon="6.50086">
        <ele>1987</ele>
        <time>2020-01-26T11:15:21Z</time>
      </trkpt>
      <trkpt lat="45.91514" lon="6.50097">
        <ele>1992</ele>
        <time>2020-01-26T11:15:56Z</time>
      </trkpt>
      <trkpt lat="45.91508" lon="6.50106">
        <ele>1998</ele>
        <time>2020-01-26T11:26:09Z</time>
      </trkpt>
      <trkpt lat="45.91501" lon="6.50116">
        <ele>1986</ele>
        <time>2020-01-26T11:26:18Z</time>
      </trkpt>
      <trkpt lat="45.91497" lon="6.50132">
        <ele>1977</ele>
        <time>2020-01-26T11:26:53Z</time>
      </trkpt>
      <trkpt lat="45.91492" lon="6.5014">
        <ele>1979</ele>
        <time>2020-01-26T11:27:24Z</time>
      </trkpt>
      <trkpt lat="45.91496" lon="6.50151">
        <ele>1980</ele>
        <time>2020-01-26T11:27:41Z</time>
      </trkpt>
      <trkpt lat="45.91495" lon="6.50163">
        <ele>1984</ele>
        <time>2020-01-26T11:28:00Z</time>
      </trkpt>
      <trkpt lat="45.91495" lon="6.50174">
        <ele>1986</ele>
        <time>2020-01-26T11:28:20Z</time>
      </trkpt>
      <trkpt lat="45.91496" lon="6.50185">
        <ele>1992</ele>
        <time>2020-01-26T11:28:39Z</time>
      </trkpt>
      <trkpt lat="45.915" lon="6.50195">
        <ele>1993</ele>
        <time>2020-01-26T11:28:48Z</time>
      </trkpt>
      <trkpt lat="45.91502" lon="6.50205">
        <ele>1997</ele>
        <time>2020-01-26T11:29:02Z</time>
      </trkpt>
      <trkpt lat="45.91502" lon="6.50213">
        <ele>1999</ele>
        <time>2020-01-26T11:29:12Z</time>
      </trkpt>
      <trkpt lat="45.91504" lon="6.50224">
        <ele>2002</ele>
        <time>2020-01-26T11:29:27Z</time>
      </trkpt>
      <trkpt lat="45.91505" lon="6.50235">
        <ele>2005</ele>
        <time>2020-01-26T11:29:42Z</time>
      </trkpt>
      <trkpt lat="45.91507" lon="6.50248">
        <ele>2005</ele>
        <time>2020-01-26T11:29:59Z</time>
      </trkpt>
      <trkpt lat="45.91513" lon="6.50255">
        <ele>2009</ele>
        <time>2020-01-26T11:30:15Z</time>
      </trkpt>
      <trkpt lat="45.9152" lon="6.50262">
        <ele>2011</ele>
        <time>2020-01-26T11:30:28Z</time>
      </trkpt>
      <trkpt lat="45.91524" lon="6.50271">
        <ele>2014</ele>
        <time>2020-01-26T11:30:43Z</time>
      </trkpt>
      <trkpt lat="45.91523" lon="6.50292">
        <ele>2015</ele>
        <time>2020-01-26T11:31:27Z</time>
      </trkpt>
      <trkpt lat="45.91525" lon="6.5032">
        <ele>2013</ele>
        <time>2020-01-26T11:32:13Z</time>
      </trkpt>
      <trkpt lat="45.91526" lon="6.5033">
        <ele>2017</ele>
        <time>2020-01-26T11:32:26Z</time>
      </trkpt>
      <trkpt lat="45.91527" lon="6.50346">
        <ele>2021</ele>
        <time>2020-01-26T11:32:49Z</time>
      </trkpt>
      <trkpt lat="45.91541" lon="6.50366">
        <ele>2034</ele>
        <time>2020-01-26T11:33:27Z</time>
      </trkpt>
      <trkpt lat="45.91546" lon="6.50373">
        <ele>2039</ele>
        <time>2020-01-26T11:33:40Z</time>
      </trkpt>
      <trkpt lat="45.91545" lon="6.50385">
        <ele>2043</ele>
        <time>2020-01-26T11:34:08Z</time>
      </trkpt>
      <trkpt lat="45.91542" lon="6.50392">
        <ele>2045</ele>
        <time>2020-01-26T11:34:19Z</time>
      </trkpt>
      <trkpt lat="45.91534" lon="6.50396">
        <ele>2047</ele>
        <time>2020-01-26T11:34:36Z</time>
      </trkpt>
      <trkpt lat="45.91526" lon="6.50399">
        <ele>2050</ele>
        <time>2020-01-26T11:34:51Z</time>
      </trkpt>
      <trkpt lat="45.91526" lon="6.50408">
        <ele>2051</ele>
        <time>2020-01-26T11:35:12Z</time>
      </trkpt>
      <trkpt lat="45.91528" lon="6.50419">
        <ele>2053</ele>
        <time>2020-01-26T11:35:27Z</time>
      </trkpt>
      <trkpt lat="45.9153" lon="6.50427">
        <ele>2060</ele>
        <time>2020-01-26T11:35:53Z</time>
      </trkpt>
      <trkpt lat="45.91534" lon="6.50436">
        <ele>2062</ele>
        <time>2020-01-26T11:36:10Z</time>
      </trkpt>
      <trkpt lat="45.91538" lon="6.50446">
        <ele>2066</ele>
        <time>2020-01-26T11:36:31Z</time>
      </trkpt>
      <trkpt lat="45.91541" lon="6.50454">
        <ele>2071</ele>
        <time>2020-01-26T11:36:47Z</time>
      </trkpt>
      <trkpt lat="45.91529" lon="6.5046">
        <ele>2075</ele>
        <time>2020-01-26T11:37:27Z</time>
      </trkpt>
      <trkpt lat="45.91535" lon="6.50467">
        <ele>2076</ele>
        <time>2020-01-26T11:37:45Z</time>
      </trkpt>
      <trkpt lat="45.91541" lon="6.50477">
        <ele>2078</ele>
        <time>2020-01-26T11:38:05Z</time>
      </trkpt>
      <trkpt lat="45.91544" lon="6.50486">
        <ele>2080</ele>
        <time>2020-01-26T11:38:30Z</time>
      </trkpt>
      <trkpt lat="45.91542" lon="6.50496">
        <ele>2086</ele>
        <time>2020-01-26T11:39:00Z</time>
      </trkpt>
      <trkpt lat="45.91531" lon="6.50512">
        <ele>2088</ele>
        <time>2020-01-26T11:39:20Z</time>
      </trkpt>
      <trkpt lat="45.91527" lon="6.50523">
        <ele>2095</ele>
        <time>2020-01-26T11:42:52Z</time>
      </trkpt>
      <trkpt lat="45.91525" lon="6.50531">
        <ele>2098</ele>
        <time>2020-01-26T11:43:02Z</time>
      </trkpt>
      <trkpt lat="45.91522" lon="6.50547">
        <ele>2097</ele>
        <time>2020-01-26T11:43:18Z</time>
      </trkpt>
      <trkpt lat="45.91521" lon="6.50558">
        <ele>2093</ele>
        <time>2020-01-26T11:43:33Z</time>
      </trkpt>
      <trkpt lat="45.91519" lon="6.50566">
        <ele>2091</ele>
        <time>2020-01-26T11:43:41Z</time>
      </trkpt>
      <trkpt lat="45.91516" lon="6.50581">
        <ele>2093</ele>
        <time>2020-01-26T11:43:59Z</time>
      </trkpt>
      <trkpt lat="45.91511" lon="6.50602">
        <ele>2093</ele>
        <time>2020-01-26T11:44:31Z</time>
      </trkpt>
      <trkpt lat="45.91509" lon="6.50614">
        <ele>2097</ele>
        <time>2020-01-26T11:44:40Z</time>
      </trkpt>
      <trkpt lat="45.91506" lon="6.50624">
        <ele>2100</ele>
        <time>2020-01-26T11:45:07Z</time>
      </trkpt>
      <trkpt lat="45.91503" lon="6.50633">
        <ele>2105</ele>
        <time>2020-01-26T11:45:18Z</time>
      </trkpt>
      <trkpt lat="45.91501" lon="6.50644">
        <ele>2107</ele>
        <time>2020-01-26T11:45:33Z</time>
      </trkpt>
      <trkpt lat="45.91503" lon="6.50653">
        <ele>2112</ele>
        <time>2020-01-26T11:45:56Z</time>
      </trkpt>
      <trkpt lat="45.91508" lon="6.50668">
        <ele>2115</ele>
        <time>2020-01-26T11:46:22Z</time>
      </trkpt>
      <trkpt lat="45.91517" lon="6.50682">
        <ele>2122</ele>
        <time>2020-01-26T11:46:54Z</time>
      </trkpt>
      <trkpt lat="45.91523" lon="6.50687">
        <ele>2126</ele>
        <time>2020-01-26T11:47:13Z</time>
      </trkpt>
      <trkpt lat="45.91529" lon="6.50693">
        <ele>2130</ele>
        <time>2020-01-26T11:47:28Z</time>
      </trkpt>
      <trkpt lat="45.91525" lon="6.50699">
        <ele>2133</ele>
        <time>2020-01-26T11:47:51Z</time>
      </trkpt>
      <trkpt lat="45.9152" lon="6.50702">
        <ele>2133</ele>
        <time>2020-01-26T11:48:09Z</time>
      </trkpt>
      <trkpt lat="45.91512" lon="6.50706">
        <ele>2134</ele>
        <time>2020-01-26T11:48:19Z</time>
      </trkpt>
      <trkpt lat="45.91505" lon="6.50708">
        <ele>2136</ele>
        <time>2020-01-26T11:48:37Z</time>
      </trkpt>
      <trkpt lat="45.91506" lon="6.50716">
        <ele>2138</ele>
        <time>2020-01-26T11:49:13Z</time>
      </trkpt>
      <trkpt lat="45.9152" lon="6.50741">
        <ele>2147</ele>
        <time>2020-01-26T11:50:10Z</time>
      </trkpt>
      <trkpt lat="45.91526" lon="6.50747">
        <ele>2149</ele>
        <time>2020-01-26T11:50:31Z</time>
      </trkpt>
      <trkpt lat="45.91537" lon="6.5076">
        <ele>2161</ele>
        <time>2020-01-26T11:55:00Z</time>
      </trkpt>
      <trkpt lat="45.91542" lon="6.50764">
        <ele>2161</ele>
        <time>2020-01-26T11:55:45Z</time>
      </trkpt>
      <trkpt lat="45.9155" lon="6.50772">
        <ele>2167</ele>
        <time>2020-01-26T11:56:09Z</time>
      </trkpt>
      <trkpt lat="45.91557" lon="6.50777">
        <ele>2170</ele>
        <time>2020-01-26T11:56:25Z</time>
      </trkpt>
      <trkpt lat="45.91563" lon="6.50783">
        <ele>2173</ele>
        <time>2020-01-26T11:56:33Z</time>
      </trkpt>
      <trkpt lat="45.91557" lon="6.50794">
        <ele>2175</ele>
        <time>2020-01-26T11:56:59Z</time>
      </trkpt>
      <trkpt lat="45.91548" lon="6.50795">
        <ele>2176</ele>
        <time>2020-01-26T11:57:26Z</time>
      </trkpt>
      <trkpt lat="45.9154" lon="6.50804">
        <ele>2176</ele>
        <time>2020-01-26T11:57:44Z</time>
      </trkpt>
      <trkpt lat="45.91532" lon="6.50811">
        <ele>2177</ele>
        <time>2020-01-26T11:58:21Z</time>
      </trkpt>
      <trkpt lat="45.91527" lon="6.50817">
        <ele>2179</ele>
        <time>2020-01-26T11:58:31Z</time>
      </trkpt>
      <trkpt lat="45.9152" lon="6.50824">
        <ele>2180</ele>
        <time>2020-01-26T11:58:42Z</time>
      </trkpt>
      <trkpt lat="45.91513" lon="6.5082">
        <ele>2183</ele>
        <time>2020-01-26T11:59:00Z</time>
      </trkpt>
      <trkpt lat="45.9151" lon="6.50827">
        <ele>2187</ele>
        <time>2020-01-26T11:59:39Z</time>
      </trkpt>
      <trkpt lat="45.91512" lon="6.50837">
        <ele>2188</ele>
        <time>2020-01-26T11:59:58Z</time>
      </trkpt>
      <trkpt lat="45.91516" lon="6.50858">
        <ele>2196</ele>
        <time>2020-01-26T12:00:38Z</time>
      </trkpt>
      <trkpt lat="45.91509" lon="6.50858">
        <ele>2200</ele>
        <time>2020-01-26T12:00:59Z</time>
      </trkpt>
      <trkpt lat="45.91502" lon="6.50861">
        <ele>2204</ele>
        <time>2020-01-26T12:01:28Z</time>
      </trkpt>
      <trkpt lat="45.91505" lon="6.50876">
        <ele>2205</ele>
        <time>2020-01-26T12:01:50Z</time>
      </trkpt>
      <trkpt lat="45.91517" lon="6.50893">
        <ele>2212</ele>
        <time>2020-01-26T12:02:28Z</time>
      </trkpt>
      <trkpt lat="45.91524" lon="6.50901">
        <ele>2213</ele>
        <time>2020-01-26T12:02:43Z</time>
      </trkpt>
      <trkpt lat="45.91517" lon="6.50901">
        <ele>2216</ele>
        <time>2020-01-26T12:03:29Z</time>
      </trkpt>
      <trkpt lat="45.91511" lon="6.50904">
        <ele>2216</ele>
        <time>2020-01-26T12:03:39Z</time>
      </trkpt>
      <trkpt lat="45.91506" lon="6.50909">
        <ele>2218</ele>
        <time>2020-01-26T12:03:47Z</time>
      </trkpt>
      <trkpt lat="45.91493" lon="6.50914">
        <ele>2221</ele>
        <time>2020-01-26T12:04:17Z</time>
      </trkpt>
      <trkpt lat="45.91477" lon="6.50905">
        <ele>2231</ele>
        <time>2020-01-26T12:04:52Z</time>
      </trkpt>
      <trkpt lat="45.91475" lon="6.50907">
        <ele>2237</ele>
        <time>2020-01-26T12:05:59Z</time>
      </trkpt>
      <trkpt lat="45.91474" lon="6.50917">
        <ele>2236</ele>
        <time>2020-01-26T12:06:34Z</time>
      </trkpt>
      <trkpt lat="45.91477" lon="6.50926">
        <ele>2235</ele>
        <time>2020-01-26T12:06:43Z</time>
      </trkpt>
      <trkpt lat="45.91476" lon="6.5093">
        <ele>2235</ele>
        <time>2020-01-26T12:07:54Z</time>
      </trkpt>
      <trkpt lat="45.91467" lon="6.50927">
        <ele>2239</ele>
        <time>2020-01-26T12:08:08Z</time>
      </trkpt>
      <trkpt lat="45.91461" lon="6.5092">
        <ele>2242</ele>
        <time>2020-01-26T12:08:23Z</time>
      </trkpt>
      <trkpt lat="45.91454" lon="6.50915">
        <ele>2246</ele>
        <time>2020-01-26T12:08:39Z</time>
      </trkpt>
      <trkpt lat="45.91448" lon="6.50922">
        <ele>2248</ele>
        <time>2020-01-26T12:09:07Z</time>
      </trkpt>
      <trkpt lat="45.91454" lon="6.50956">
        <ele>2247</ele>
        <time>2020-01-26T12:10:00Z</time>
      </trkpt>
      <trkpt lat="45.91453" lon="6.50968">
        <ele>2247</ele>
        <time>2020-01-26T12:11:06Z</time>
      </trkpt>
      <trkpt lat="45.91454" lon="6.5099">
        <ele>2249</ele>
        <time>2020-01-26T12:11:33Z</time>
      </trkpt>
      <trkpt lat="45.91454" lon="6.51008">
        <ele>2249</ele>
        <time>2020-01-26T12:11:53Z</time>
      </trkpt>
      <trkpt lat="45.91453" lon="6.51022">
        <ele>2247</ele>
        <time>2020-01-26T12:12:38Z</time>
      </trkpt>
      <trkpt lat="45.91452" lon="6.51036">
        <ele>2247</ele>
        <time>2020-01-26T12:13:12Z</time>
      </trkpt>
      <trkpt lat="45.91449" lon="6.51046">
        <ele>2257</ele>
        <time>2020-01-26T12:13:50Z</time>
      </trkpt>
      <trkpt lat="45.91445" lon="6.51056">
        <ele>2259</ele>
        <time>2020-01-26T12:14:03Z</time>
      </trkpt>
      <trkpt lat="45.91441" lon="6.51069">
        <ele>2266</ele>
        <time>2020-01-26T12:14:38Z</time>
      </trkpt>
      <trkpt lat="45.91437" lon="6.51082">
        <ele>2270</ele>
        <time>2020-01-26T12:15:11Z</time>
      </trkpt>
      <trkpt lat="45.91435" lon="6.51091">
        <ele>2273</ele>
        <time>2020-01-26T12:15:35Z</time>
      </trkpt>
      <trkpt lat="45.91442" lon="6.51098">
        <ele>2278</ele>
        <time>2020-01-26T12:16:03Z</time>
      </trkpt>
      <trkpt lat="45.91449" lon="6.51102">
        <ele>2291</ele>
        <time>2020-01-26T12:16:43Z</time>
      </trkpt>
      <trkpt lat="45.91456" lon="6.51105">
        <ele>2297</ele>
        <time>2020-01-26T12:16:57Z</time>
      </trkpt>
      <trkpt lat="45.91464" lon="6.51106">
        <ele>2303</ele>
        <time>2020-01-26T12:17:21Z</time>
      </trkpt>
      <trkpt lat="45.91467" lon="6.51112">
        <ele>2305</ele>
        <time>2020-01-26T12:17:44Z</time>
      </trkpt>
      <trkpt lat="45.91463" lon="6.51122">
        <ele>2306</ele>
        <time>2020-01-26T12:18:04Z</time>
      </trkpt>
      <trkpt lat="45.91471" lon="6.51124">
        <ele>2308</ele>
        <time>2020-01-26T12:18:22Z</time>
      </trkpt>
      <trkpt lat="45.91478" lon="6.51119">
        <ele>2312</ele>
        <time>2020-01-26T12:18:47Z</time>
      </trkpt>
      <trkpt lat="45.91483" lon="6.51112">
        <ele>2317</ele>
        <time>2020-01-26T12:19:15Z</time>
      </trkpt>
      <trkpt lat="45.9149" lon="6.51101">
        <ele>2318</ele>
        <time>2020-01-26T12:19:57Z</time>
      </trkpt>
      <trkpt lat="45.91496" lon="6.51093">
        <ele>2322</ele>
        <time>2020-01-26T12:27:23Z</time>
      </trkpt>
      <trkpt lat="45.91501" lon="6.51086">
        <ele>2322</ele>
        <time>2020-01-26T12:27:44Z</time>
      </trkpt>
      <trkpt lat="45.91505" lon="6.511">
        <ele>2324</ele>
        <time>2020-01-26T12:28:17Z</time>
      </trkpt>
      <trkpt lat="45.91503" lon="6.51113">
        <ele>2324</ele>
        <time>2020-01-26T12:28:54Z</time>
      </trkpt>
      <trkpt lat="45.91502" lon="6.51124">
        <ele>2323</ele>
        <time>2020-01-26T12:29:12Z</time>
      </trkpt>
      <trkpt lat="45.915" lon="6.51135">
        <ele>2321</ele>
        <time>2020-01-26T12:29:44Z</time>
      </trkpt>
      <trkpt lat="45.91495" lon="6.51148">
        <ele>2321</ele>
        <time>2020-01-26T12:30:08Z</time>
      </trkpt>
      <trkpt lat="45.91494" lon="6.51161">
        <ele>2323</ele>
        <time>2020-01-26T12:30:26Z</time>
      </trkpt>
      <trkpt lat="45.91487" lon="6.51166">
        <ele>2324</ele>
        <time>2020-01-26T12:30:35Z</time>
      </trkpt>
      <trkpt lat="45.91483" lon="6.51176">
        <ele>2327</ele>
        <time>2020-01-26T12:30:56Z</time>
      </trkpt>
      <trkpt lat="45.91478" lon="6.51185">
        <ele>2330</ele>
        <time>2020-01-26T12:31:42Z</time>
      </trkpt>
      <trkpt lat="45.91486" lon="6.51188">
        <ele>2333</ele>
        <time>2020-01-26T12:32:48Z</time>
      </trkpt>
      <trkpt lat="45.91482" lon="6.51198">
        <ele>2343</ele>
        <time>2020-01-26T12:34:13Z</time>
      </trkpt>
      <trkpt lat="45.91492" lon="6.51203">
        <ele>2350</ele>
        <time>2020-01-26T12:34:57Z</time>
      </trkpt>
      <trkpt lat="45.91499" lon="6.51204">
        <ele>2356</ele>
        <time>2020-01-26T12:35:50Z</time>
      </trkpt>
      <trkpt lat="45.91503" lon="6.51209">
        <ele>2360</ele>
        <time>2020-01-26T12:36:45Z</time>
      </trkpt>
      <trkpt lat="45.91496" lon="6.51222">
        <ele>2360</ele>
        <time>2020-01-26T12:38:59Z</time>
      </trkpt>
      <trkpt lat="45.91498" lon="6.51233">
        <ele>2362</ele>
        <time>2020-01-26T12:39:51Z</time>
      </trkpt>
      <trkpt lat="45.91506" lon="6.51233">
        <ele>2364</ele>
        <time>2020-01-26T12:40:15Z</time>
      </trkpt>
      <trkpt lat="45.91514" lon="6.51233">
        <ele>2371</ele>
        <time>2020-01-26T12:40:36Z</time>
      </trkpt>
      <trkpt lat="45.91517" lon="6.5124">
        <ele>2379</ele>
        <time>2020-01-26T12:41:45Z</time>
      </trkpt>
      <trkpt lat="45.91511" lon="6.51256">
        <ele>2384</ele>
        <time>2020-01-26T12:42:20Z</time>
      </trkpt>
      <trkpt lat="45.91516" lon="6.51263">
        <ele>2390</ele>
        <time>2020-01-26T12:44:57Z</time>
      </trkpt>
      <trkpt lat="45.91515" lon="6.51274">
        <ele>2394</ele>
        <time>2020-01-26T12:46:10Z</time>
      </trkpt>
      <trkpt lat="45.91524" lon="6.51274">
        <ele>2397</ele>
        <time>2020-01-26T12:47:02Z</time>
      </trkpt>
      <trkpt lat="45.91532" lon="6.51272">
        <ele>2401</ele>
        <time>2020-01-26T12:47:32Z</time>
      </trkpt>
      <trkpt lat="45.91539" lon="6.51272">
        <ele>2403</ele>
        <time>2020-01-26T12:48:45Z</time>
      </trkpt>
      <trkpt lat="45.91538" lon="6.51279">
        <ele>2405</ele>
        <time>2020-01-26T12:50:24Z</time>
      </trkpt>
      <trkpt lat="45.91544" lon="6.5127">
        <ele>2412</ele>
        <time>2020-01-26T12:53:02Z</time>
      </trkpt>
      <trkpt lat="45.9155" lon="6.51263">
        <ele>2417</ele>
        <time>2020-01-26T12:53:29Z</time>
      </trkpt>
      <trkpt lat="45.91558" lon="6.51264">
        <ele>2420</ele>
        <time>2020-01-26T12:55:37Z</time>
      </trkpt>
      <trkpt lat="45.91566" lon="6.51261">
        <ele>2425</ele>
        <time>2020-01-26T12:56:14Z</time>
      </trkpt>
      <trkpt lat="45.91571" lon="6.51257">
        <ele>2427</ele>
        <time>2020-01-26T12:57:07Z</time>
      </trkpt>
      <trkpt lat="45.91574" lon="6.51263">
        <ele>2428</ele>
        <time>2020-01-26T12:58:01Z</time>
      </trkpt>
      <trkpt lat="45.91582" lon="6.51275">
        <ele>2430</ele>
        <time>2020-01-26T12:59:20Z</time>
      </trkpt>
      <trkpt lat="45.91591" lon="6.51276">
        <ele>2438</ele>
        <time>2020-01-26T13:01:08Z</time>
      </trkpt>
      <trkpt lat="45.91586" lon="6.51272">
        <ele>2447</ele>
        <time>2020-01-26T13:05:58Z</time>
      </trkpt>
      <trkpt lat="45.91584" lon="6.51275">
        <ele>2451</ele>
        <time>2020-01-26T13:13:40Z</time>
      </trkpt>
      <trkpt lat="45.91599" lon="6.51238">
        <ele>2447</ele>
        <time>2020-01-26T13:16:10Z</time>
      </trkpt>
      <trkpt lat="45.91565" lon="6.5124">
        <ele>2446</ele>
        <time>2020-01-26T13:16:34Z</time>
      </trkpt>
      <trkpt lat="45.91529" lon="6.51242">
        <ele>2434</ele>
        <time>2020-01-26T13:16:43Z</time>
      </trkpt>
      <trkpt lat="45.91423" lon="6.51231">
        <ele>2423</ele>
        <time>2020-01-26T13:17:07Z</time>
      </trkpt>
      <trkpt lat="45.91573" lon="6.51299">
        <ele>2422</ele>
        <time>2020-01-26T13:18:59Z</time>
      </trkpt>
      <trkpt lat="45.91587" lon="6.51269">
        <ele>2425</ele>
        <time>2020-01-26T13:23:31Z</time>
      </trkpt>
      <trkpt lat="45.91596" lon="6.51272">
        <ele>2440</ele>
        <time>2020-01-26T13:28:48Z</time>
      </trkpt>
      <trkpt lat="45.91591" lon="6.51281">
        <ele>2440</ele>
        <time>2020-01-26T13:28:56Z</time>
      </trkpt>
      <trkpt lat="45.91555" lon="6.51286">
        <ele>2446</ele>
        <time>2020-01-26T13:34:02Z</time>
      </trkpt>
      <trkpt lat="45.91563" lon="6.51276">
        <ele>2447</ele>
        <time>2020-01-26T13:34:17Z</time>
      </trkpt>
      <trkpt lat="45.91571" lon="6.51276">
        <ele>2450</ele>
        <time>2020-01-26T13:34:48Z</time>
      </trkpt>
      <trkpt lat="45.91576" lon="6.51271">
        <ele>2450</ele>
        <time>2020-01-26T13:35:14Z</time>
      </trkpt>
      <trkpt lat="45.91585" lon="6.51266">
        <ele>2450</ele>
        <time>2020-01-26T13:36:55Z</time>
      </trkpt>
      <trkpt lat="45.91588" lon="6.51259">
        <ele>2451</ele>
        <time>2020-01-26T13:38:15Z</time>
      </trkpt>
      <trkpt lat="45.91582" lon="6.51254">
        <ele>2450</ele>
        <time>2020-01-26T13:40:29Z</time>
      </trkpt>
      <trkpt lat="45.91573" lon="6.51246">
        <ele>2447</ele>
        <time>2020-01-26T13:41:22Z</time>
      </trkpt>
      <trkpt lat="45.91577" lon="6.51234">
        <ele>2444</ele>
        <time>2020-01-26T13:41:50Z</time>
      </trkpt>
      <trkpt lat="45.91585" lon="6.51228">
        <ele>2443</ele>
        <time>2020-01-26T13:41:54Z</time>
      </trkpt>
      <trkpt lat="45.91589" lon="6.51222">
        <ele>2443</ele>
        <time>2020-01-26T13:41:57Z</time>
      </trkpt>
      <trkpt lat="45.91579" lon="6.51219">
        <ele>2439</ele>
        <time>2020-01-26T13:41:59Z</time>
      </trkpt>
      <trkpt lat="45.91583" lon="6.5121">
        <ele>2437</ele>
        <time>2020-01-26T13:42:07Z</time>
      </trkpt>
      <trkpt lat="45.91587" lon="6.51201">
        <ele>2436</ele>
        <time>2020-01-26T13:42:10Z</time>
      </trkpt>
      <trkpt lat="45.91594" lon="6.5119">
        <ele>2423</ele>
        <time>2020-01-26T13:45:21Z</time>
      </trkpt>
      <trkpt lat="45.91586" lon="6.51188">
        <ele>2422</ele>
        <time>2020-01-26T13:45:25Z</time>
      </trkpt>
      <trkpt lat="45.9158" lon="6.51184">
        <ele>2420</ele>
        <time>2020-01-26T13:45:27Z</time>
      </trkpt>
      <trkpt lat="45.91583" lon="6.51173">
        <ele>2418</ele>
        <time>2020-01-26T13:45:34Z</time>
      </trkpt>
      <trkpt lat="45.91581" lon="6.51168">
        <ele>2417</ele>
        <time>2020-01-26T13:45:50Z</time>
      </trkpt>
      <trkpt lat="45.91574" lon="6.51163">
        <ele>2411</ele>
        <time>2020-01-26T13:46:50Z</time>
      </trkpt>
      <trkpt lat="45.91587" lon="6.51147">
        <ele>2396</ele>
        <time>2020-01-26T13:49:05Z</time>
      </trkpt>
      <trkpt lat="45.91594" lon="6.5114">
        <ele>2391</ele>
        <time>2020-01-26T13:49:38Z</time>
      </trkpt>
      <trkpt lat="45.91597" lon="6.5113">
        <ele>2387</ele>
        <time>2020-01-26T13:50:06Z</time>
      </trkpt>
      <trkpt lat="45.91593" lon="6.51121">
        <ele>2384</ele>
        <time>2020-01-26T13:50:27Z</time>
      </trkpt>
      <trkpt lat="45.91591" lon="6.51111">
        <ele>2382</ele>
        <time>2020-01-26T13:50:35Z</time>
      </trkpt>
      <trkpt lat="45.91587" lon="6.51105">
        <ele>2376</ele>
        <time>2020-01-26T13:51:31Z</time>
      </trkpt>
      <trkpt lat="45.91592" lon="6.51095">
        <ele>2375</ele>
        <time>2020-01-26T13:51:41Z</time>
      </trkpt>
      <trkpt lat="45.91593" lon="6.51087">
        <ele>2372</ele>
        <time>2020-01-26T13:51:45Z</time>
      </trkpt>
      <trkpt lat="45.91592" lon="6.5108">
        <ele>2366</ele>
        <time>2020-01-26T13:52:24Z</time>
      </trkpt>
      <trkpt lat="45.91585" lon="6.51075">
        <ele>2365</ele>
        <time>2020-01-26T13:52:30Z</time>
      </trkpt>
      <trkpt lat="45.9158" lon="6.51076">
        <ele>2358</ele>
        <time>2020-01-26T13:52:41Z</time>
      </trkpt>
      <trkpt lat="45.91572" lon="6.51077">
        <ele>2356</ele>
        <time>2020-01-26T13:53:22Z</time>
      </trkpt>
      <trkpt lat="45.91577" lon="6.51059">
        <ele>2356</ele>
        <time>2020-01-26T13:53:28Z</time>
      </trkpt>
      <trkpt lat="45.91569" lon="6.51065">
        <ele>2355</ele>
        <time>2020-01-26T13:53:32Z</time>
      </trkpt>
      <trkpt lat="45.91568" lon="6.51054">
        <ele>2348</ele>
        <time>2020-01-26T13:53:51Z</time>
      </trkpt>
      <trkpt lat="45.91562" lon="6.51058">
        <ele>2345</ele>
        <time>2020-01-26T13:54:08Z</time>
      </trkpt>
      <trkpt lat="45.91559" lon="6.51049">
        <ele>2339</ele>
        <time>2020-01-26T13:54:21Z</time>
      </trkpt>
      <trkpt lat="45.91553" lon="6.51044">
        <ele>2337</ele>
        <time>2020-01-26T13:54:28Z</time>
      </trkpt>
      <trkpt lat="45.91547" lon="6.51042">
        <ele>2332</ele>
        <time>2020-01-26T13:54:35Z</time>
      </trkpt>
      <trkpt lat="45.91546" lon="6.51031">
        <ele>2329</ele>
        <time>2020-01-26T13:54:43Z</time>
      </trkpt>
      <trkpt lat="45.91539" lon="6.51025">
        <ele>2318</ele>
        <time>2020-01-26T13:55:24Z</time>
      </trkpt>
      <trkpt lat="45.91538" lon="6.51011">
        <ele>2315</ele>
        <time>2020-01-26T13:55:28Z</time>
      </trkpt>
      <trkpt lat="45.91536" lon="6.51001">
        <ele>2310</ele>
        <time>2020-01-26T13:55:32Z</time>
      </trkpt>
      <trkpt lat="45.91531" lon="6.50998">
        <ele>2305</ele>
        <time>2020-01-26T13:57:29Z</time>
      </trkpt>
      <trkpt lat="45.91524" lon="6.50994">
        <ele>2299</ele>
        <time>2020-01-26T13:57:34Z</time>
      </trkpt>
      <trkpt lat="45.91528" lon="6.50987">
        <ele>2296</ele>
        <time>2020-01-26T13:57:48Z</time>
      </trkpt>
      <trkpt lat="45.91526" lon="6.50979">
        <ele>2292</ele>
        <time>2020-01-26T13:58:29Z</time>
      </trkpt>
      <trkpt lat="45.9152" lon="6.50975">
        <ele>2289</ele>
        <time>2020-01-26T13:59:09Z</time>
      </trkpt>
      <trkpt lat="45.9152" lon="6.50963">
        <ele>2289</ele>
        <time>2020-01-26T13:59:18Z</time>
      </trkpt>
      <trkpt lat="45.91518" lon="6.50955">
        <ele>2284</ele>
        <time>2020-01-26T13:59:22Z</time>
      </trkpt>
      <trkpt lat="45.91518" lon="6.50945">
        <ele>2283</ele>
        <time>2020-01-26T13:59:28Z</time>
      </trkpt>
      <trkpt lat="45.91512" lon="6.50943">
        <ele>2279</ele>
        <time>2020-01-26T13:59:36Z</time>
      </trkpt>
      <trkpt lat="45.91509" lon="6.50937">
        <ele>2277</ele>
        <time>2020-01-26T13:59:39Z</time>
      </trkpt>
      <trkpt lat="45.91516" lon="6.5093">
        <ele>2276</ele>
        <time>2020-01-26T13:59:48Z</time>
      </trkpt>
      <trkpt lat="45.91517" lon="6.50918">
        <ele>2273</ele>
        <time>2020-01-26T13:59:54Z</time>
      </trkpt>
      <trkpt lat="45.91515" lon="6.50911">
        <ele>2272</ele>
        <time>2020-01-26T13:59:56Z</time>
      </trkpt>
      <trkpt lat="45.91515" lon="6.509">
        <ele>2270</ele>
        <time>2020-01-26T13:59:59Z</time>
      </trkpt>
      <trkpt lat="45.91513" lon="6.50891">
        <ele>2268</ele>
        <time>2020-01-26T14:00:02Z</time>
      </trkpt>
      <trkpt lat="45.91514" lon="6.5088">
        <ele>2265</ele>
        <time>2020-01-26T14:00:05Z</time>
      </trkpt>
      <trkpt lat="45.91513" lon="6.50868">
        <ele>2251</ele>
        <time>2020-01-26T14:01:11Z</time>
      </trkpt>
      <trkpt lat="45.91517" lon="6.50861">
        <ele>2248</ele>
        <time>2020-01-26T14:01:14Z</time>
      </trkpt>
      <trkpt lat="45.91514" lon="6.50852">
        <ele>2247</ele>
        <time>2020-01-26T14:01:16Z</time>
      </trkpt>
      <trkpt lat="45.91517" lon="6.50842">
        <ele>2246</ele>
        <time>2020-01-26T14:01:19Z</time>
      </trkpt>
      <trkpt lat="45.91516" lon="6.50834">
        <ele>2244</ele>
        <time>2020-01-26T14:01:21Z</time>
      </trkpt>
      <trkpt lat="45.91525" lon="6.50833">
        <ele>2243</ele>
        <time>2020-01-26T14:01:25Z</time>
      </trkpt>
      <trkpt lat="45.91527" lon="6.50826">
        <ele>2241</ele>
        <time>2020-01-26T14:01:28Z</time>
      </trkpt>
      <trkpt lat="45.91531" lon="6.50815">
        <ele>2238</ele>
        <time>2020-01-26T14:01:36Z</time>
      </trkpt>
      <trkpt lat="45.9153" lon="6.50805">
        <ele>2233</ele>
        <time>2020-01-26T14:01:44Z</time>
      </trkpt>
      <trkpt lat="45.91526" lon="6.50794">
        <ele>2230</ele>
        <time>2020-01-26T14:02:01Z</time>
      </trkpt>
      <trkpt lat="45.91534" lon="6.50785">
        <ele>2226</ele>
        <time>2020-01-26T14:02:04Z</time>
      </trkpt>
      <trkpt lat="45.91527" lon="6.50776">
        <ele>2223</ele>
        <time>2020-01-26T14:02:07Z</time>
      </trkpt>
      <trkpt lat="45.91532" lon="6.50769">
        <ele>2215</ele>
        <time>2020-01-26T14:02:10Z</time>
      </trkpt>
      <trkpt lat="45.91528" lon="6.50759">
        <ele>2214</ele>
        <time>2020-01-26T14:02:14Z</time>
      </trkpt>
      <trkpt lat="45.91536" lon="6.50756">
        <ele>2211</ele>
        <time>2020-01-26T14:02:18Z</time>
      </trkpt>
      <trkpt lat="45.9153" lon="6.50748">
        <ele>2208</ele>
        <time>2020-01-26T14:02:24Z</time>
      </trkpt>
      <trkpt lat="45.91535" lon="6.50737">
        <ele>2206</ele>
        <time>2020-01-26T14:02:28Z</time>
      </trkpt>
      <trkpt lat="45.91536" lon="6.50729">
        <ele>2201</ele>
        <time>2020-01-26T14:02:31Z</time>
      </trkpt>
      <trkpt lat="45.91532" lon="6.50724">
        <ele>2199</ele>
        <time>2020-01-26T14:02:35Z</time>
      </trkpt>
      <trkpt lat="45.9153" lon="6.50716">
        <ele>2195</ele>
        <time>2020-01-26T14:02:37Z</time>
      </trkpt>
      <trkpt lat="45.9153" lon="6.50706">
        <ele>2189</ele>
        <time>2020-01-26T14:02:41Z</time>
      </trkpt>
      <trkpt lat="45.91534" lon="6.50703">
        <ele>2180</ele>
        <time>2020-01-26T14:02:53Z</time>
      </trkpt>
      <trkpt lat="45.91535" lon="6.50694">
        <ele>2178</ele>
        <time>2020-01-26T14:02:58Z</time>
      </trkpt>
      <trkpt lat="45.91533" lon="6.50687">
        <ele>2175</ele>
        <time>2020-01-26T14:03:00Z</time>
      </trkpt>
      <trkpt lat="45.91533" lon="6.50678">
        <ele>2173</ele>
        <time>2020-01-26T14:03:03Z</time>
      </trkpt>
      <trkpt lat="45.91539" lon="6.50674">
        <ele>2168</ele>
        <time>2020-01-26T14:03:28Z</time>
      </trkpt>
      <trkpt lat="45.91538" lon="6.50663">
        <ele>2167</ele>
        <time>2020-01-26T14:03:31Z</time>
      </trkpt>
      <trkpt lat="45.91544" lon="6.50658">
        <ele>2166</ele>
        <time>2020-01-26T14:03:33Z</time>
      </trkpt>
      <trkpt lat="45.91542" lon="6.50651">
        <ele>2166</ele>
        <time>2020-01-26T14:03:35Z</time>
      </trkpt>
      <trkpt lat="45.91546" lon="6.50641">
        <ele>2161</ele>
        <time>2020-01-26T14:03:38Z</time>
      </trkpt>
      <trkpt lat="45.91547" lon="6.50632">
        <ele>2159</ele>
        <time>2020-01-26T14:03:40Z</time>
      </trkpt>
      <trkpt lat="45.91544" lon="6.50621">
        <ele>2154</ele>
        <time>2020-01-26T14:03:44Z</time>
      </trkpt>
      <trkpt lat="45.9155" lon="6.50619">
        <ele>2152</ele>
        <time>2020-01-26T14:03:49Z</time>
      </trkpt>
      <trkpt lat="45.91553" lon="6.50609">
        <ele>2151</ele>
        <time>2020-01-26T14:03:54Z</time>
      </trkpt>
      <trkpt lat="45.91546" lon="6.50609">
        <ele>2149</ele>
        <time>2020-01-26T14:03:57Z</time>
      </trkpt>
      <trkpt lat="45.91547" lon="6.50601">
        <ele>2149</ele>
        <time>2020-01-26T14:04:00Z</time>
      </trkpt>
      <trkpt lat="45.91551" lon="6.50593">
        <ele>2147</ele>
        <time>2020-01-26T14:04:04Z</time>
      </trkpt>
      <trkpt lat="45.91552" lon="6.50584">
        <ele>2146</ele>
        <time>2020-01-26T14:04:07Z</time>
      </trkpt>
      <trkpt lat="45.91552" lon="6.50575">
        <ele>2143</ele>
        <time>2020-01-26T14:04:12Z</time>
      </trkpt>
      <trkpt lat="45.91551" lon="6.50568">
        <ele>2141</ele>
        <time>2020-01-26T14:04:16Z</time>
      </trkpt>
      <trkpt lat="45.91561" lon="6.50565">
        <ele>2139</ele>
        <time>2020-01-26T14:04:25Z</time>
      </trkpt>
      <trkpt lat="45.91562" lon="6.50554">
        <ele>2134</ele>
        <time>2020-01-26T14:04:29Z</time>
      </trkpt>
      <trkpt lat="45.91554" lon="6.50528">
        <ele>2128</ele>
        <time>2020-01-26T14:04:33Z</time>
      </trkpt>
      <trkpt lat="45.91553" lon="6.50515">
        <ele>2127</ele>
        <time>2020-01-26T14:04:35Z</time>
      </trkpt>
      <trkpt lat="45.91556" lon="6.50498">
        <ele>2125</ele>
        <time>2020-01-26T14:04:41Z</time>
      </trkpt>
      <trkpt lat="45.91553" lon="6.50485">
        <ele>2124</ele>
        <time>2020-01-26T14:04:52Z</time>
      </trkpt>
      <trkpt lat="45.91551" lon="6.50477">
        <ele>2124</ele>
        <time>2020-01-26T14:04:56Z</time>
      </trkpt>
      <trkpt lat="45.91557" lon="6.50475">
        <ele>2123</ele>
        <time>2020-01-26T14:04:59Z</time>
      </trkpt>
      <trkpt lat="45.91553" lon="6.50468">
        <ele>2123</ele>
        <time>2020-01-26T14:05:02Z</time>
      </trkpt>
      <trkpt lat="45.91557" lon="6.50461">
        <ele>2123</ele>
        <time>2020-01-26T14:05:04Z</time>
      </trkpt>
      <trkpt lat="45.91551" lon="6.50455">
        <ele>2121</ele>
        <time>2020-01-26T14:05:11Z</time>
      </trkpt>
      <trkpt lat="45.91548" lon="6.50446">
        <ele>2120</ele>
        <time>2020-01-26T14:05:19Z</time>
      </trkpt>
      <trkpt lat="45.91544" lon="6.50441">
        <ele>2115</ele>
        <time>2020-01-26T14:05:21Z</time>
      </trkpt>
      <trkpt lat="45.91541" lon="6.50433">
        <ele>2114</ele>
        <time>2020-01-26T14:05:24Z</time>
      </trkpt>
      <trkpt lat="45.91542" lon="6.50424">
        <ele>2110</ele>
        <time>2020-01-26T14:05:27Z</time>
      </trkpt>
      <trkpt lat="45.91533" lon="6.50406">
        <ele>2106</ele>
        <time>2020-01-26T14:05:33Z</time>
      </trkpt>
      <trkpt lat="45.91533" lon="6.50396">
        <ele>2106</ele>
        <time>2020-01-26T14:05:36Z</time>
      </trkpt>
      <trkpt lat="45.91533" lon="6.50385">
        <ele>2104</ele>
        <time>2020-01-26T14:05:46Z</time>
      </trkpt>
      <trkpt lat="45.91537" lon="6.50376">
        <ele>2101</ele>
        <time>2020-01-26T14:05:48Z</time>
      </trkpt>
      <trkpt lat="45.91536" lon="6.50366">
        <ele>2098</ele>
        <time>2020-01-26T14:05:51Z</time>
      </trkpt>
      <trkpt lat="45.91539" lon="6.5036">
        <ele>2093</ele>
        <time>2020-01-26T14:05:58Z</time>
      </trkpt>
      <trkpt lat="45.91533" lon="6.50352">
        <ele>2091</ele>
        <time>2020-01-26T14:06:30Z</time>
      </trkpt>
      <trkpt lat="45.91537" lon="6.50342">
        <ele>2089</ele>
        <time>2020-01-26T14:06:32Z</time>
      </trkpt>
      <trkpt lat="45.91532" lon="6.50335">
        <ele>2088</ele>
        <time>2020-01-26T14:06:34Z</time>
      </trkpt>
      <trkpt lat="45.91539" lon="6.5032">
        <ele>2086</ele>
        <time>2020-01-26T14:06:38Z</time>
      </trkpt>
      <trkpt lat="45.91535" lon="6.50313">
        <ele>2084</ele>
        <time>2020-01-26T14:06:40Z</time>
      </trkpt>
      <trkpt lat="45.91538" lon="6.50307">
        <ele>2077</ele>
        <time>2020-01-26T14:06:42Z</time>
      </trkpt>
      <trkpt lat="45.91544" lon="6.50298">
        <ele>2073</ele>
        <time>2020-01-26T14:06:46Z</time>
      </trkpt>
      <trkpt lat="45.91549" lon="6.50278">
        <ele>2067</ele>
        <time>2020-01-26T14:06:53Z</time>
      </trkpt>
      <trkpt lat="45.91551" lon="6.50269">
        <ele>2066</ele>
        <time>2020-01-26T14:06:54Z</time>
      </trkpt>
      <trkpt lat="45.91559" lon="6.50232">
        <ele>2059</ele>
        <time>2020-01-26T14:07:02Z</time>
      </trkpt>
      <trkpt lat="45.91559" lon="6.50227">
        <ele>2057</ele>
        <time>2020-01-26T14:07:31Z</time>
      </trkpt>
      <trkpt lat="45.91563" lon="6.50219">
        <ele>2057</ele>
        <time>2020-01-26T14:07:34Z</time>
      </trkpt>
      <trkpt lat="45.9156" lon="6.50213">
        <ele>2056</ele>
        <time>2020-01-26T14:07:37Z</time>
      </trkpt>
      <trkpt lat="45.9156" lon="6.50203">
        <ele>2056</ele>
        <time>2020-01-26T14:07:39Z</time>
      </trkpt>
      <trkpt lat="45.9155" lon="6.50195">
        <ele>2054</ele>
        <time>2020-01-26T14:07:55Z</time>
      </trkpt>
      <trkpt lat="45.91548" lon="6.50187">
        <ele>2052</ele>
        <time>2020-01-26T14:08:02Z</time>
      </trkpt>
      <trkpt lat="45.91545" lon="6.50173">
        <ele>2048</ele>
        <time>2020-01-26T14:08:18Z</time>
      </trkpt>
      <trkpt lat="45.91545" lon="6.50142">
        <ele>2036</ele>
        <time>2020-01-26T14:08:29Z</time>
      </trkpt>
      <trkpt lat="45.91548" lon="6.50133">
        <ele>2033</ele>
        <time>2020-01-26T14:08:30Z</time>
      </trkpt>
      <trkpt lat="45.91549" lon="6.50119">
        <ele>2028</ele>
        <time>2020-01-26T14:08:33Z</time>
      </trkpt>
      <trkpt lat="45.91553" lon="6.50108">
        <ele>2023</ele>
        <time>2020-01-26T14:08:34Z</time>
      </trkpt>
      <trkpt lat="45.9155" lon="6.50095">
        <ele>2022</ele>
        <time>2020-01-26T14:08:50Z</time>
      </trkpt>
      <trkpt lat="45.91552" lon="6.50088">
        <ele>2021</ele>
        <time>2020-01-26T14:08:54Z</time>
      </trkpt>
      <trkpt lat="45.91553" lon="6.50079">
        <ele>2020</ele>
        <time>2020-01-26T14:08:57Z</time>
      </trkpt>
      <trkpt lat="45.9155" lon="6.50068">
        <ele>2018</ele>
        <time>2020-01-26T14:08:59Z</time>
      </trkpt>
      <trkpt lat="45.91557" lon="6.50066">
        <ele>2017</ele>
        <time>2020-01-26T14:09:02Z</time>
      </trkpt>
      <trkpt lat="45.91563" lon="6.50054">
        <ele>2009</ele>
        <time>2020-01-26T14:09:06Z</time>
      </trkpt>
      <trkpt lat="45.91575" lon="6.50048">
        <ele>2008</ele>
        <time>2020-01-26T14:09:13Z</time>
      </trkpt>
      <trkpt lat="45.9157" lon="6.5004">
        <ele>2005</ele>
        <time>2020-01-26T14:09:30Z</time>
      </trkpt>
      <trkpt lat="45.91566" lon="6.50031">
        <ele>2004</ele>
        <time>2020-01-26T14:09:33Z</time>
      </trkpt>
      <trkpt lat="45.91568" lon="6.50023">
        <ele>2000</ele>
        <time>2020-01-26T14:09:35Z</time>
      </trkpt>
      <trkpt lat="45.91572" lon="6.50017">
        <ele>2000</ele>
        <time>2020-01-26T14:09:38Z</time>
      </trkpt>
      <trkpt lat="45.91576" lon="6.50011">
        <ele>1999</ele>
        <time>2020-01-26T14:09:39Z</time>
      </trkpt>
      <trkpt lat="45.91593" lon="6.50004">
        <ele>1985</ele>
        <time>2020-01-26T14:10:10Z</time>
      </trkpt>
      <trkpt lat="45.916" lon="6.50006">
        <ele>1981</ele>
        <time>2020-01-26T14:10:13Z</time>
      </trkpt>
      <trkpt lat="45.91607" lon="6.50001">
        <ele>1979</ele>
        <time>2020-01-26T14:10:14Z</time>
      </trkpt>
      <trkpt lat="45.91616" lon="6.50002">
        <ele>1977</ele>
        <time>2020-01-26T14:10:18Z</time>
      </trkpt>
      <trkpt lat="45.91625" lon="6.49997">
        <ele>1970</ele>
        <time>2020-01-26T14:10:22Z</time>
      </trkpt>
      <trkpt lat="45.91632" lon="6.5">
        <ele>1970</ele>
        <time>2020-01-26T14:10:25Z</time>
      </trkpt>
      <trkpt lat="45.91641" lon="6.50002">
        <ele>1966</ele>
        <time>2020-01-26T14:10:26Z</time>
      </trkpt>
      <trkpt lat="45.91648" lon="6.49993">
        <ele>1964</ele>
        <time>2020-01-26T14:10:30Z</time>
      </trkpt>
      <trkpt lat="45.91646" lon="6.49984">
        <ele>1962</ele>
        <time>2020-01-26T14:10:33Z</time>
      </trkpt>
      <trkpt lat="45.91648" lon="6.49975">
        <ele>1959</ele>
        <time>2020-01-26T14:10:34Z</time>
      </trkpt>
      <trkpt lat="45.91646" lon="6.49964">
        <ele>1954</ele>
        <time>2020-01-26T14:10:37Z</time>
      </trkpt>
      <trkpt lat="45.91653" lon="6.49957">
        <ele>1948</ele>
        <time>2020-01-26T14:10:38Z</time>
      </trkpt>
      <trkpt lat="45.91652" lon="6.49949">
        <ele>1945</ele>
        <time>2020-01-26T14:10:41Z</time>
      </trkpt>
      <trkpt lat="45.91658" lon="6.49944">
        <ele>1938</ele>
        <time>2020-01-26T14:10:42Z</time>
      </trkpt>
      <trkpt lat="45.91656" lon="6.49933">
        <ele>1934</ele>
        <time>2020-01-26T14:10:45Z</time>
      </trkpt>
      <trkpt lat="45.91663" lon="6.49924">
        <ele>1927</ele>
        <time>2020-01-26T14:10:46Z</time>
      </trkpt>
      <trkpt lat="45.91665" lon="6.49902">
        <ele>1918</ele>
        <time>2020-01-26T14:10:50Z</time>
      </trkpt>
      <trkpt lat="45.91684" lon="6.49892">
        <ele>1916</ele>
        <time>2020-01-26T14:11:02Z</time>
      </trkpt>
      <trkpt lat="45.91686" lon="6.49882">
        <ele>1911</ele>
        <time>2020-01-26T14:11:09Z</time>
      </trkpt>
      <trkpt lat="45.91682" lon="6.4987">
        <ele>1906</ele>
        <time>2020-01-26T14:11:10Z</time>
      </trkpt>
      <trkpt lat="45.91677" lon="6.4986">
        <ele>1905</ele>
        <time>2020-01-26T14:11:14Z</time>
      </trkpt>
      <trkpt lat="45.91679" lon="6.49849">
        <ele>1902</ele>
        <time>2020-01-26T14:11:15Z</time>
      </trkpt>
      <trkpt lat="45.91681" lon="6.49839">
        <ele>1902</ele>
        <time>2020-01-26T14:11:18Z</time>
      </trkpt>
      <trkpt lat="45.91678" lon="6.4984">
        <ele>1895</ele>
        <time>2020-01-26T14:16:14Z</time>
      </trkpt>
      <trkpt lat="45.91689" lon="6.4984">
        <ele>1895</ele>
        <time>2020-01-26T14:20:58Z</time>
      </trkpt>
      <trkpt lat="45.91686" lon="6.49826">
        <ele>1895</ele>
        <time>2020-01-26T14:21:02Z</time>
      </trkpt>
      <trkpt lat="45.91691" lon="6.49816">
        <ele>1895</ele>
        <time>2020-01-26T14:21:06Z</time>
      </trkpt>
      <trkpt lat="45.91693" lon="6.49806">
        <ele>1894</ele>
        <time>2020-01-26T14:21:09Z</time>
      </trkpt>
      <trkpt lat="45.91699" lon="6.49798">
        <ele>1893</ele>
        <time>2020-01-26T14:21:11Z</time>
      </trkpt>
      <trkpt lat="45.91707" lon="6.49794">
        <ele>1892</ele>
        <time>2020-01-26T14:21:14Z</time>
      </trkpt>
      <trkpt lat="45.91707" lon="6.49781">
        <ele>1885</ele>
        <time>2020-01-26T14:21:18Z</time>
      </trkpt>
      <trkpt lat="45.91711" lon="6.49769">
        <ele>1883</ele>
        <time>2020-01-26T14:21:22Z</time>
      </trkpt>
      <trkpt lat="45.91719" lon="6.49765">
        <ele>1881</ele>
        <time>2020-01-26T14:21:26Z</time>
      </trkpt>
      <trkpt lat="45.91725" lon="6.49762">
        <ele>1877</ele>
        <time>2020-01-26T14:21:30Z</time>
      </trkpt>
      <trkpt lat="45.91724" lon="6.49748">
        <ele>1869</ele>
        <time>2020-01-26T14:21:46Z</time>
      </trkpt>
      <trkpt lat="45.91731" lon="6.49723">
        <ele>1856</ele>
        <time>2020-01-26T14:21:54Z</time>
      </trkpt>
      <trkpt lat="45.91736" lon="6.49718">
        <ele>1853</ele>
        <time>2020-01-26T14:21:59Z</time>
      </trkpt>
      <trkpt lat="45.91745" lon="6.49715">
        <ele>1844</ele>
        <time>2020-01-26T14:22:03Z</time>
      </trkpt>
      <trkpt lat="45.91745" lon="6.49704">
        <ele>1838</ele>
        <time>2020-01-26T14:22:06Z</time>
      </trkpt>
      <trkpt lat="45.91753" lon="6.49705">
        <ele>1836</ele>
        <time>2020-01-26T14:22:10Z</time>
      </trkpt>
      <trkpt lat="45.91754" lon="6.49693">
        <ele>1834</ele>
        <time>2020-01-26T14:22:14Z</time>
      </trkpt>
      <trkpt lat="45.91757" lon="6.49683">
        <ele>1832</ele>
        <time>2020-01-26T14:22:26Z</time>
      </trkpt>
      <trkpt lat="45.91758" lon="6.49661">
        <ele>1827</ele>
        <time>2020-01-26T14:22:34Z</time>
      </trkpt>
      <trkpt lat="45.91761" lon="6.49654">
        <ele>1824</ele>
        <time>2020-01-26T14:22:45Z</time>
      </trkpt>
      <trkpt lat="45.91766" lon="6.4967">
        <ele>1817</ele>
        <time>2020-01-26T14:22:53Z</time>
      </trkpt>
      <trkpt lat="45.91769" lon="6.49677">
        <ele>1815</ele>
        <time>2020-01-26T14:23:06Z</time>
      </trkpt>
      <trkpt lat="45.91776" lon="6.49688">
        <ele>1813</ele>
        <time>2020-01-26T14:23:10Z</time>
      </trkpt>
      <trkpt lat="45.91781" lon="6.49681">
        <ele>1811</ele>
        <time>2020-01-26T14:23:13Z</time>
      </trkpt>
      <trkpt lat="45.91784" lon="6.49671">
        <ele>1810</ele>
        <time>2020-01-26T14:23:15Z</time>
      </trkpt>
      <trkpt lat="45.91785" lon="6.49664">
        <ele>1804</ele>
        <time>2020-01-26T14:23:21Z</time>
      </trkpt>
      <trkpt lat="45.91794" lon="6.49669">
        <ele>1803</ele>
        <time>2020-01-26T14:23:26Z</time>
      </trkpt>
      <trkpt lat="45.91801" lon="6.49662">
        <ele>1797</ele>
        <time>2020-01-26T14:23:29Z</time>
      </trkpt>
      <trkpt lat="45.91807" lon="6.49665">
        <ele>1796</ele>
        <time>2020-01-26T14:23:31Z</time>
      </trkpt>
      <trkpt lat="45.91811" lon="6.49658">
        <ele>1793</ele>
        <time>2020-01-26T14:23:33Z</time>
      </trkpt>
      <trkpt lat="45.91817" lon="6.49662">
        <ele>1789</ele>
        <time>2020-01-26T14:23:52Z</time>
      </trkpt>
      <trkpt lat="45.91824" lon="6.49664">
        <ele>1788</ele>
        <time>2020-01-26T14:23:56Z</time>
      </trkpt>
      <trkpt lat="45.91832" lon="6.49653">
        <ele>1786</ele>
        <time>2020-01-26T14:24:00Z</time>
      </trkpt>
      <trkpt lat="45.91839" lon="6.49654">
        <ele>1780</ele>
        <time>2020-01-26T14:24:04Z</time>
      </trkpt>
      <trkpt lat="45.9184" lon="6.49646">
        <ele>1776</ele>
        <time>2020-01-26T14:24:28Z</time>
      </trkpt>
      <trkpt lat="45.9185" lon="6.49643">
        <ele>1767</ele>
        <time>2020-01-26T14:24:41Z</time>
      </trkpt>
      <trkpt lat="45.91858" lon="6.4964">
        <ele>1763</ele>
        <time>2020-01-26T14:24:43Z</time>
      </trkpt>
      <trkpt lat="45.91862" lon="6.49633">
        <ele>1757</ele>
        <time>2020-01-26T14:24:45Z</time>
      </trkpt>
      <trkpt lat="45.91865" lon="6.49618">
        <ele>1753</ele>
        <time>2020-01-26T14:24:48Z</time>
      </trkpt>
      <trkpt lat="45.91873" lon="6.4961">
        <ele>1745</ele>
        <time>2020-01-26T14:24:51Z</time>
      </trkpt>
      <trkpt lat="45.9188" lon="6.49599">
        <ele>1741</ele>
        <time>2020-01-26T14:24:54Z</time>
      </trkpt>
      <trkpt lat="45.91887" lon="6.49597">
        <ele>1737</ele>
        <time>2020-01-26T14:24:57Z</time>
      </trkpt>
      <trkpt lat="45.91892" lon="6.49585">
        <ele>1731</ele>
        <time>2020-01-26T14:25:01Z</time>
      </trkpt>
      <trkpt lat="45.91895" lon="6.49577">
        <ele>1728</ele>
        <time>2020-01-26T14:25:03Z</time>
      </trkpt>
      <trkpt lat="45.919" lon="6.49567">
        <ele>1725</ele>
        <time>2020-01-26T14:25:08Z</time>
      </trkpt>
      <trkpt lat="45.91903" lon="6.4956">
        <ele>1721</ele>
        <time>2020-01-26T14:25:33Z</time>
      </trkpt>
      <trkpt lat="45.91908" lon="6.49549">
        <ele>1715</ele>
        <time>2020-01-26T14:26:08Z</time>
      </trkpt>
      <trkpt lat="45.91924" lon="6.49543">
        <ele>1706</ele>
        <time>2020-01-26T14:26:13Z</time>
      </trkpt>
      <trkpt lat="45.91931" lon="6.49535">
        <ele>1703</ele>
        <time>2020-01-26T14:26:15Z</time>
      </trkpt>
      <trkpt lat="45.91936" lon="6.4953">
        <ele>1697</ele>
        <time>2020-01-26T14:26:17Z</time>
      </trkpt>
      <trkpt lat="45.91942" lon="6.49524">
        <ele>1694</ele>
        <time>2020-01-26T14:26:19Z</time>
      </trkpt>
      <trkpt lat="45.91951" lon="6.49523">
        <ele>1687</ele>
        <time>2020-01-26T14:26:22Z</time>
      </trkpt>
      <trkpt lat="45.91958" lon="6.49518">
        <ele>1685</ele>
        <time>2020-01-26T14:26:25Z</time>
      </trkpt>
      <trkpt lat="45.91973" lon="6.49511">
        <ele>1682</ele>
        <time>2020-01-26T14:26:30Z</time>
      </trkpt>
      <trkpt lat="45.91978" lon="6.49506">
        <ele>1679</ele>
        <time>2020-01-26T14:26:32Z</time>
      </trkpt>
      <trkpt lat="45.91984" lon="6.49501">
        <ele>1677</ele>
        <time>2020-01-26T14:26:34Z</time>
      </trkpt>
      <trkpt lat="45.91985" lon="6.49496">
        <ele>1666</ele>
        <time>2020-01-26T14:27:29Z</time>
      </trkpt>
      <trkpt lat="45.91987" lon="6.49484">
        <ele>1664</ele>
        <time>2020-01-26T14:27:50Z</time>
      </trkpt>
      <trkpt lat="45.91995" lon="6.4948">
        <ele>1658</ele>
        <time>2020-01-26T14:27:52Z</time>
      </trkpt>
      <trkpt lat="45.92" lon="6.49469">
        <ele>1655</ele>
        <time>2020-01-26T14:27:55Z</time>
      </trkpt>
      <trkpt lat="45.92001" lon="6.49457">
        <ele>1651</ele>
        <time>2020-01-26T14:27:57Z</time>
      </trkpt>
      <trkpt lat="45.92023" lon="6.49442">
        <ele>1643</ele>
        <time>2020-01-26T14:28:07Z</time>
      </trkpt>
      <trkpt lat="45.9203" lon="6.49447">
        <ele>1640</ele>
        <time>2020-01-26T14:28:10Z</time>
      </trkpt>
      <trkpt lat="45.92032" lon="6.49455">
        <ele>1635</ele>
        <time>2020-01-26T14:28:29Z</time>
      </trkpt>
      <trkpt lat="45.92041" lon="6.49439">
        <ele>1632</ele>
        <time>2020-01-26T14:28:44Z</time>
      </trkpt>
      <trkpt lat="45.92047" lon="6.49438">
        <ele>1628</ele>
        <time>2020-01-26T14:29:02Z</time>
      </trkpt>
      <trkpt lat="45.92049" lon="6.49428">
        <ele>1628</ele>
        <time>2020-01-26T14:29:06Z</time>
      </trkpt>
      <trkpt lat="45.92054" lon="6.49432">
        <ele>1625</ele>
        <time>2020-01-26T14:29:14Z</time>
      </trkpt>
      <trkpt lat="45.9206" lon="6.49429">
        <ele>1623</ele>
        <time>2020-01-26T14:29:19Z</time>
      </trkpt>
      <trkpt lat="45.92067" lon="6.49433">
        <ele>1623</ele>
        <time>2020-01-26T14:29:24Z</time>
      </trkpt>
      <trkpt lat="45.92072" lon="6.49436">
        <ele>1621</ele>
        <time>2020-01-26T14:29:26Z</time>
      </trkpt>
      <trkpt lat="45.92083" lon="6.49427">
        <ele>1617</ele>
        <time>2020-01-26T14:30:04Z</time>
      </trkpt>
      <trkpt lat="45.92092" lon="6.49414">
        <ele>1613</ele>
        <time>2020-01-26T14:30:09Z</time>
      </trkpt>
      <trkpt lat="45.92103" lon="6.49416">
        <ele>1611</ele>
        <time>2020-01-26T14:30:15Z</time>
      </trkpt>
      <trkpt lat="45.92111" lon="6.49411">
        <ele>1604</ele>
        <time>2020-01-26T14:30:17Z</time>
      </trkpt>
      <trkpt lat="45.92117" lon="6.49405">
        <ele>1602</ele>
        <time>2020-01-26T14:30:20Z</time>
      </trkpt>
      <trkpt lat="45.92121" lon="6.49396">
        <ele>1597</ele>
        <time>2020-01-26T14:30:22Z</time>
      </trkpt>
      <trkpt lat="45.92122" lon="6.49383">
        <ele>1591</ele>
        <time>2020-01-26T14:30:24Z</time>
      </trkpt>
      <trkpt lat="45.92129" lon="6.4938">
        <ele>1580</ele>
        <time>2020-01-26T14:30:27Z</time>
      </trkpt>
      <trkpt lat="45.92135" lon="6.49376">
        <ele>1578</ele>
        <time>2020-01-26T14:30:30Z</time>
      </trkpt>
      <trkpt lat="45.92145" lon="6.49385">
        <ele>1572</ele>
        <time>2020-01-26T14:31:01Z</time>
      </trkpt>
      <trkpt lat="45.92153" lon="6.49381">
        <ele>1562</ele>
        <time>2020-01-26T14:31:03Z</time>
      </trkpt>
      <trkpt lat="45.92158" lon="6.4937">
        <ele>1558</ele>
        <time>2020-01-26T14:31:05Z</time>
      </trkpt>
      <trkpt lat="45.92164" lon="6.49361">
        <ele>1553</ele>
        <time>2020-01-26T14:31:07Z</time>
      </trkpt>
      <trkpt lat="45.92173" lon="6.49352">
        <ele>1551</ele>
        <time>2020-01-26T14:31:10Z</time>
      </trkpt>
      <trkpt lat="45.92178" lon="6.49343">
        <ele>1550</ele>
        <time>2020-01-26T14:31:12Z</time>
      </trkpt>
      <trkpt lat="45.92183" lon="6.49334">
        <ele>1547</ele>
        <time>2020-01-26T14:31:14Z</time>
      </trkpt>
      <trkpt lat="45.92185" lon="6.49321">
        <ele>1544</ele>
        <time>2020-01-26T14:31:16Z</time>
      </trkpt>
      <trkpt lat="45.92189" lon="6.49309">
        <ele>1542</ele>
        <time>2020-01-26T14:31:18Z</time>
      </trkpt>
      <trkpt lat="45.92191" lon="6.49298">
        <ele>1538</ele>
        <time>2020-01-26T14:31:20Z</time>
      </trkpt>
      <trkpt lat="45.92194" lon="6.49288">
        <ele>1534</ele>
        <time>2020-01-26T14:31:22Z</time>
      </trkpt>
      <trkpt lat="45.92192" lon="6.49278">
        <ele>1532</ele>
        <time>2020-01-26T14:31:24Z</time>
      </trkpt>
      <trkpt lat="45.92192" lon="6.49266">
        <ele>1529</ele>
        <time>2020-01-26T14:31:26Z</time>
      </trkpt>
      <trkpt lat="45.92195" lon="6.4926">
        <ele>1528</ele>
        <time>2020-01-26T14:31:28Z</time>
      </trkpt>
      <trkpt lat="45.92198" lon="6.49248">
        <ele>1525</ele>
        <time>2020-01-26T14:31:30Z</time>
      </trkpt>
      <trkpt lat="45.92197" lon="6.49236">
        <ele>1522</ele>
        <time>2020-01-26T14:31:32Z</time>
      </trkpt>
      <trkpt lat="45.92198" lon="6.49228">
        <ele>1521</ele>
        <time>2020-01-26T14:31:33Z</time>
      </trkpt>
      <trkpt lat="45.92202" lon="6.49215">
        <ele>1517</ele>
        <time>2020-01-26T14:31:35Z</time>
      </trkpt>
      <trkpt lat="45.92202" lon="6.49203">
        <ele>1513</ele>
        <time>2020-01-26T14:31:37Z</time>
      </trkpt>
      <trkpt lat="45.92203" lon="6.49193">
        <ele>1512</ele>
        <time>2020-01-26T14:31:39Z</time>
      </trkpt>
      <trkpt lat="45.92205" lon="6.49181">
        <ele>1509</ele>
        <time>2020-01-26T14:31:41Z</time>
      </trkpt>
      <trkpt lat="45.92202" lon="6.49169">
        <ele>1506</ele>
        <time>2020-01-26T14:31:43Z</time>
      </trkpt>
      <trkpt lat="45.92197" lon="6.49158">
        <ele>1503</ele>
        <time>2020-01-26T14:31:45Z</time>
      </trkpt>
      <trkpt lat="45.92199" lon="6.49147">
        <ele>1500</ele>
        <time>2020-01-26T14:31:47Z</time>
      </trkpt>
      <trkpt lat="45.92193" lon="6.49139">
        <ele>1496</ele>
        <time>2020-01-26T14:33:04Z</time>
      </trkpt>
      <trkpt lat="45.92193" lon="6.49124">
        <ele>1494</ele>
        <time>2020-01-26T14:33:07Z</time>
      </trkpt>
      <trkpt lat="45.92189" lon="6.4911">
        <ele>1492</ele>
        <time>2020-01-26T14:33:09Z</time>
      </trkpt>
      <trkpt lat="45.92186" lon="6.49094">
        <ele>1489</ele>
        <time>2020-01-26T14:33:11Z</time>
      </trkpt>
      <trkpt lat="45.92182" lon="6.49078">
        <ele>1486</ele>
        <time>2020-01-26T14:33:13Z</time>
      </trkpt>
      <trkpt lat="45.92175" lon="6.49063">
        <ele>1482</ele>
        <time>2020-01-26T14:33:15Z</time>
      </trkpt>
      <trkpt lat="45.92174" lon="6.49052">
        <ele>1481</ele>
        <time>2020-01-26T14:33:16Z</time>
      </trkpt>
      <trkpt lat="45.92172" lon="6.49042">
        <ele>1479</ele>
        <time>2020-01-26T14:33:17Z</time>
      </trkpt>
      <trkpt lat="45.92172" lon="6.49023">
        <ele>1477</ele>
        <time>2020-01-26T14:33:19Z</time>
      </trkpt>
      <trkpt lat="45.92169" lon="6.49013">
        <ele>1476</ele>
        <time>2020-01-26T14:33:20Z</time>
      </trkpt>
      <trkpt lat="45.92169" lon="6.49003">
        <ele>1474</ele>
        <time>2020-01-26T14:33:21Z</time>
      </trkpt>
      <trkpt lat="45.92159" lon="6.48914">
        <ele>1463</ele>
        <time>2020-01-26T14:33:29Z</time>
      </trkpt>
      <trkpt lat="45.92164" lon="6.48853">
        <ele>1458</ele>
        <time>2020-01-26T14:33:35Z</time>
      </trkpt>
      <trkpt lat="45.92168" lon="6.48843">
        <ele>1458</ele>
        <time>2020-01-26T14:33:38Z</time>
      </trkpt>
      <trkpt lat="45.92176" lon="6.48821">
        <ele>1457</ele>
        <time>2020-01-26T14:33:57Z</time>
      </trkpt>
      <trkpt lat="45.92182" lon="6.48801">
        <ele>1456</ele>
        <time>2020-01-26T14:34:18Z</time>
      </trkpt>
      <trkpt lat="45.92178" lon="6.48793">
        <ele>1457</ele>
        <time>2020-01-26T14:34:29Z</time>
      </trkpt>
      <trkpt lat="45.92173" lon="6.48779">
        <ele>1457</ele>
        <time>2020-01-26T14:35:24Z</time>
      </trkpt>
      <trkpt lat="45.9217" lon="6.48771">
        <ele>1457</ele>
        <time>2020-01-26T14:35:33Z</time>
      </trkpt>
      <trkpt lat="45.92162" lon="6.48743">
        <ele>1459</ele>
        <time>2020-01-26T14:36:10Z</time>
      </trkpt>
      <trkpt lat="45.9216" lon="6.48732">
        <ele>1460</ele>
        <time>2020-01-26T14:36:21Z</time>
      </trkpt>
      <trkpt lat="45.92157" lon="6.48724">
        <ele>1461</ele>
        <time>2020-01-26T14:36:28Z</time>
      </trkpt>
      <trkpt lat="45.92146" lon="6.48703">
        <ele>1462</ele>
        <time>2020-01-26T14:36:58Z</time>
      </trkpt>
      <trkpt lat="45.92135" lon="6.48679">
        <ele>1462</ele>
        <time>2020-01-26T14:37:10Z</time>
      </trkpt>
      <trkpt lat="45.92128" lon="6.48653">
        <ele>1460</ele>
        <time>2020-01-26T14:37:14Z</time>
      </trkpt>
      <trkpt lat="45.92161" lon="6.4857">
        <ele>1462</ele>
        <time>2020-01-26T14:37:44Z</time>
      </trkpt>
      <trkpt lat="45.92192" lon="6.48494">
        <ele>1459</ele>
        <time>2020-01-26T14:37:55Z</time>
      </trkpt>
      <trkpt lat="45.92237" lon="6.48436">
        <ele>1457</ele>
        <time>2020-01-26T14:38:05Z</time>
      </trkpt>
      <trkpt lat="45.92243" lon="6.4843">
        <ele>1456</ele>
        <time>2020-01-26T14:38:11Z</time>
      </trkpt>
      <trkpt lat="45.92247" lon="6.48424">
        <ele>1456</ele>
        <time>2020-01-26T14:38:15Z</time>
      </trkpt>
      <trkpt lat="45.92253" lon="6.48418">
        <ele>1455</ele>
        <time>2020-01-26T14:38:28Z</time>
      </trkpt>
      <trkpt lat="45.92317" lon="6.4839">
        <ele>1452</ele>
        <time>2020-01-26T14:38:59Z</time>
      </trkpt>
      <trkpt lat="45.92323" lon="6.48387">
        <ele>1451</ele>
        <time>2020-01-26T14:39:03Z</time>
      </trkpt>
      <trkpt lat="45.92325" lon="6.48374">
        <ele>1450</ele>
        <time>2020-01-26T14:39:44Z</time>
      </trkpt>
      <trkpt lat="45.92331" lon="6.48367">
        <ele>1448</ele>
        <time>2020-01-26T14:40:47Z</time>
      </trkpt>
      <trkpt lat="45.92342" lon="6.4835">
        <ele>1447</ele>
        <time>2020-01-26T14:41:04Z</time>
      </trkpt>
      <trkpt lat="45.92349" lon="6.48348">
        <ele>1446</ele>
        <time>2020-01-26T14:41:08Z</time>
      </trkpt>
      <trkpt lat="45.92359" lon="6.48337">
        <ele>1446</ele>
        <time>2020-01-26T14:41:21Z</time>
      </trkpt>
      <trkpt lat="45.92366" lon="6.48334">
        <ele>1446</ele>
        <time>2020-01-26T14:41:27Z</time>
      </trkpt>
      <trkpt lat="45.92375" lon="6.48335">
        <ele>1446</ele>
        <time>2020-01-26T14:42:20Z</time>
      </trkpt>
      <trkpt lat="45.92366" lon="6.48343">
        <ele>1443</ele>
        <time>2020-01-26T14:48:39Z</time>
      </trkpt>
      <trkpt lat="45.92363" lon="6.48344">
        <ele>1445</ele>
        <time>2020-01-26T14:49:33Z</time>
      </trkpt>
      <trkpt lat="45.92374" lon="6.48335">
        <ele>1445</ele>
        <time>2020-01-26T14:49:39Z</time>
      </trkpt>
      <trkpt lat="45.92381" lon="6.48327">
        <ele>1442</ele>
        <time>2020-01-26T14:49:59Z</time>
      </trkpt>
      <trkpt lat="45.92365" lon="6.48348">
        <ele>1446</ele>
        <time>2020-01-26T14:51:55Z</time>
      </trkpt>
      <trkpt lat="45.92368" lon="6.48345">
        <ele>1444</ele>
        <time>2020-01-26T14:54:07Z</time>
      </trkpt>
      <trkpt lat="45.92374" lon="6.48341">
        <ele>1444</ele>
        <time>2020-01-26T14:54:41Z</time>
      </trkpt>
      <trkpt lat="45.92376" lon="6.48332">
        <ele>1445</ele>
        <time>2020-01-26T14:56:22Z</time>
      </trkpt>
    </trkseg>
  </trk>
</gpx>